<?xml version="1.0" encoding="UTF-8" standalone="no" ?>
<gpx xmlns="http://www.topografix.com/GPX/1/1" xmlns:xsi="http://www.w3.org/2001/XMLSchema-instance" xsi:schemaLocation="http://www.topografix.com/GPX/1/1 http://www.topografix.com/GPX/1/1/gpx.xsd" version="1.1" creator="VisuGPX - https://www.visugpx.com">
  <metadata>
    <name>VTT Sud Bourgogne</name>
    <desc><![CDATA[Cluny - Tournus : circuits VTT XC]]></desc>
  </metadata>
  <trk>
    <name><![CDATA[7 LE_GRAND_TOUR_DU_TOURNUGEOIS - Noir]]></name>
    <extensions>
      <line xmlns="http://www.topografix.com/GPX/gpx_style/0/2">
        <color>000024</color>
        <width>4</width>
      </line>
    </extensions>
    <trkseg>
      <trkpt lat="46.57057" lon="4.91205">
        <ele>173</ele>
        <time>2020-09-22T10:12:40Z</time>
      </trkpt>
      <trkpt lat="46.56791" lon="4.91122">
        <ele>173</ele>
        <time>2020-09-22T10:13:44Z</time>
      </trkpt>
      <trkpt lat="46.56698" lon="4.91107">
        <ele>173</ele>
        <time>2020-09-22T10:14:05Z</time>
      </trkpt>
      <trkpt lat="46.56693" lon="4.91104">
        <ele>174</ele>
        <time>2020-09-22T10:14:07Z</time>
      </trkpt>
      <trkpt lat="46.56687" lon="4.91087">
        <ele>175</ele>
        <time>2020-09-22T10:14:10Z</time>
      </trkpt>
      <trkpt lat="46.56655" lon="4.91105">
        <ele>175</ele>
        <time>2020-09-22T10:14:18Z</time>
      </trkpt>
      <trkpt lat="46.56582" lon="4.91123">
        <ele>176</ele>
        <time>2020-09-22T10:14:35Z</time>
      </trkpt>
      <trkpt lat="46.56544" lon="4.91139">
        <ele>177</ele>
        <time>2020-09-22T10:14:44Z</time>
      </trkpt>
      <trkpt lat="46.56469" lon="4.91181">
        <ele>178</ele>
        <time>2020-09-22T10:15:03Z</time>
      </trkpt>
      <trkpt lat="46.5644" lon="4.91191">
        <ele>178</ele>
        <time>2020-09-22T10:15:10Z</time>
      </trkpt>
      <trkpt lat="46.56399" lon="4.91211">
        <ele>178</ele>
        <time>2020-09-22T10:15:20Z</time>
      </trkpt>
      <trkpt lat="46.56332" lon="4.91249">
        <ele>179</ele>
        <time>2020-09-22T10:15:37Z</time>
      </trkpt>
      <trkpt lat="46.56299" lon="4.91273">
        <ele>179</ele>
        <time>2020-09-22T10:15:45Z</time>
      </trkpt>
      <trkpt lat="46.56164" lon="4.91384">
        <ele>178</ele>
        <time>2020-09-22T10:16:22Z</time>
      </trkpt>
      <trkpt lat="46.56017" lon="4.91537">
        <ele>174</ele>
        <time>2020-09-22T10:17:04Z</time>
      </trkpt>
      <trkpt lat="46.55925" lon="4.91602">
        <ele>175</ele>
        <time>2020-09-22T10:17:28Z</time>
      </trkpt>
      <trkpt lat="46.55731" lon="4.91718">
        <ele>171</ele>
        <time>2020-09-22T10:18:17Z</time>
      </trkpt>
      <trkpt lat="46.55673" lon="4.91741">
        <ele>174</ele>
        <time>2020-09-22T10:18:31Z</time>
      </trkpt>
      <trkpt lat="46.5559" lon="4.91761">
        <ele>174</ele>
        <time>2020-09-22T10:18:50Z</time>
      </trkpt>
      <trkpt lat="46.55537" lon="4.91591">
        <ele>175</ele>
        <time>2020-09-22T10:19:20Z</time>
      </trkpt>
      <trkpt lat="46.55523" lon="4.91585">
        <ele>175</ele>
        <time>2020-09-22T10:19:24Z</time>
      </trkpt>
      <trkpt lat="46.55489" lon="4.91587">
        <ele>174</ele>
        <time>2020-09-22T10:19:32Z</time>
      </trkpt>
      <trkpt lat="46.55464" lon="4.91593">
        <ele>174</ele>
        <time>2020-09-22T10:19:38Z</time>
      </trkpt>
      <trkpt lat="46.5543" lon="4.91605">
        <ele>175</ele>
        <time>2020-09-22T10:19:46Z</time>
      </trkpt>
      <trkpt lat="46.55411" lon="4.91613">
        <ele>175</ele>
        <time>2020-09-22T10:19:51Z</time>
      </trkpt>
      <trkpt lat="46.55391" lon="4.91625">
        <ele>176</ele>
        <time>2020-09-22T10:19:56Z</time>
      </trkpt>
      <trkpt lat="46.55384" lon="4.91619">
        <ele>176</ele>
        <time>2020-09-22T10:19:57Z</time>
      </trkpt>
      <trkpt lat="46.55377" lon="4.91619">
        <ele>176</ele>
        <time>2020-09-22T10:19:59Z</time>
      </trkpt>
      <trkpt lat="46.5533" lon="4.91633">
        <ele>177</ele>
        <time>2020-09-22T10:20:10Z</time>
      </trkpt>
      <trkpt lat="46.55318" lon="4.91634">
        <ele>178</ele>
        <time>2020-09-22T10:20:13Z</time>
      </trkpt>
      <trkpt lat="46.55295" lon="4.91629">
        <ele>179</ele>
        <time>2020-09-22T10:20:19Z</time>
      </trkpt>
      <trkpt lat="46.5527" lon="4.91618">
        <ele>181</ele>
        <time>2020-09-22T10:20:25Z</time>
      </trkpt>
      <trkpt lat="46.55244" lon="4.91597">
        <ele>183</ele>
        <time>2020-09-22T10:20:32Z</time>
      </trkpt>
      <trkpt lat="46.55253" lon="4.91574">
        <ele>183</ele>
        <time>2020-09-22T10:20:36Z</time>
      </trkpt>
      <trkpt lat="46.55254" lon="4.91557">
        <ele>182</ele>
        <time>2020-09-22T10:20:39Z</time>
      </trkpt>
      <trkpt lat="46.55252" lon="4.91549">
        <ele>182</ele>
        <time>2020-09-22T10:20:40Z</time>
      </trkpt>
      <trkpt lat="46.55225" lon="4.9152">
        <ele>183</ele>
        <time>2020-09-22T10:20:48Z</time>
      </trkpt>
      <trkpt lat="46.552" lon="4.915">
        <ele>185</ele>
        <time>2020-09-22T10:20:54Z</time>
      </trkpt>
      <trkpt lat="46.55193" lon="4.91484">
        <ele>185</ele>
        <time>2020-09-22T10:20:57Z</time>
      </trkpt>
      <trkpt lat="46.55192" lon="4.91473">
        <ele>185</ele>
        <time>2020-09-22T10:20:59Z</time>
      </trkpt>
      <trkpt lat="46.55196" lon="4.91428">
        <ele>185</ele>
        <time>2020-09-22T10:21:07Z</time>
      </trkpt>
      <trkpt lat="46.55217" lon="4.91334">
        <ele>184</ele>
        <time>2020-09-22T10:21:22Z</time>
      </trkpt>
      <trkpt lat="46.55233" lon="4.91237">
        <ele>188</ele>
        <time>2020-09-22T10:21:38Z</time>
      </trkpt>
      <trkpt lat="46.55232" lon="4.91207">
        <ele>188</ele>
        <time>2020-09-22T10:21:43Z</time>
      </trkpt>
      <trkpt lat="46.55224" lon="4.91185">
        <ele>189</ele>
        <time>2020-09-22T10:21:47Z</time>
      </trkpt>
      <trkpt lat="46.55223" lon="4.91163">
        <ele>190</ele>
        <time>2020-09-22T10:21:51Z</time>
      </trkpt>
      <trkpt lat="46.55234" lon="4.91014">
        <ele>191</ele>
        <time>2020-09-22T10:22:15Z</time>
      </trkpt>
      <trkpt lat="46.55255" lon="4.9093">
        <ele>192</ele>
        <time>2020-09-22T10:22:29Z</time>
      </trkpt>
      <trkpt lat="46.55317" lon="4.90739">
        <ele>188</ele>
        <time>2020-09-22T10:23:03Z</time>
      </trkpt>
      <trkpt lat="46.55425" lon="4.90738">
        <ele>185</ele>
        <time>2020-09-22T10:23:28Z</time>
      </trkpt>
      <trkpt lat="46.55467" lon="4.90734">
        <ele>185</ele>
        <time>2020-09-22T10:23:38Z</time>
      </trkpt>
      <trkpt lat="46.55565" lon="4.90718">
        <ele>189</ele>
        <time>2020-09-22T10:24:01Z</time>
      </trkpt>
      <trkpt lat="46.55554" lon="4.90753">
        <ele>188</ele>
        <time>2020-09-22T10:24:07Z</time>
      </trkpt>
      <trkpt lat="46.55545" lon="4.90768">
        <ele>188</ele>
        <time>2020-09-22T10:24:11Z</time>
      </trkpt>
      <trkpt lat="46.55525" lon="4.90816">
        <ele>188</ele>
        <time>2020-09-22T10:24:20Z</time>
      </trkpt>
      <trkpt lat="46.55492" lon="4.9096">
        <ele>187</ele>
        <time>2020-09-22T10:24:44Z</time>
      </trkpt>
      <trkpt lat="46.55487" lon="4.91006">
        <ele>187</ele>
        <time>2020-09-22T10:24:51Z</time>
      </trkpt>
      <trkpt lat="46.55479" lon="4.91147">
        <ele>186</ele>
        <time>2020-09-22T10:25:14Z</time>
      </trkpt>
      <trkpt lat="46.55482" lon="4.91238">
        <ele>185</ele>
        <time>2020-09-22T10:25:29Z</time>
      </trkpt>
      <trkpt lat="46.55485" lon="4.91244">
        <ele>185</ele>
        <time>2020-09-22T10:25:30Z</time>
      </trkpt>
      <trkpt lat="46.5549" lon="4.91245">
        <ele>186</ele>
        <time>2020-09-22T10:25:31Z</time>
      </trkpt>
      <trkpt lat="46.55635" lon="4.91238">
        <ele>186</ele>
        <time>2020-09-22T10:26:05Z</time>
      </trkpt>
      <trkpt lat="46.5566" lon="4.91234">
        <ele>185</ele>
        <time>2020-09-22T10:26:11Z</time>
      </trkpt>
      <trkpt lat="46.55724" lon="4.91177">
        <ele>185</ele>
        <time>2020-09-22T10:26:28Z</time>
      </trkpt>
      <trkpt lat="46.55749" lon="4.91121">
        <ele>186</ele>
        <time>2020-09-22T10:26:39Z</time>
      </trkpt>
      <trkpt lat="46.5575" lon="4.911">
        <ele>186</ele>
        <time>2020-09-22T10:26:43Z</time>
      </trkpt>
      <trkpt lat="46.55756" lon="4.91082">
        <ele>187</ele>
        <time>2020-09-22T10:26:46Z</time>
      </trkpt>
      <trkpt lat="46.5575" lon="4.91056">
        <ele>188</ele>
        <time>2020-09-22T10:26:50Z</time>
      </trkpt>
      <trkpt lat="46.55742" lon="4.90998">
        <ele>189</ele>
        <time>2020-09-22T10:27:00Z</time>
      </trkpt>
      <trkpt lat="46.55732" lon="4.90977">
        <ele>189</ele>
        <time>2020-09-22T10:27:04Z</time>
      </trkpt>
      <trkpt lat="46.55703" lon="4.90957">
        <ele>189</ele>
        <time>2020-09-22T10:27:11Z</time>
      </trkpt>
      <trkpt lat="46.55698" lon="4.9095">
        <ele>189</ele>
        <time>2020-09-22T10:27:13Z</time>
      </trkpt>
      <trkpt lat="46.55694" lon="4.90938">
        <ele>189</ele>
        <time>2020-09-22T10:27:15Z</time>
      </trkpt>
      <trkpt lat="46.55687" lon="4.90768">
        <ele>192</ele>
        <time>2020-09-22T10:27:42Z</time>
      </trkpt>
      <trkpt lat="46.55689" lon="4.90743">
        <ele>192</ele>
        <time>2020-09-22T10:27:46Z</time>
      </trkpt>
      <trkpt lat="46.55739" lon="4.90743">
        <ele>192</ele>
        <time>2020-09-22T10:27:58Z</time>
      </trkpt>
      <trkpt lat="46.55761" lon="4.9074">
        <ele>192</ele>
        <time>2020-09-22T10:28:03Z</time>
      </trkpt>
      <trkpt lat="46.55796" lon="4.90722">
        <ele>192</ele>
        <time>2020-09-22T10:28:12Z</time>
      </trkpt>
      <trkpt lat="46.55804" lon="4.90715">
        <ele>192</ele>
        <time>2020-09-22T10:28:14Z</time>
      </trkpt>
      <trkpt lat="46.55827" lon="4.90735">
        <ele>192</ele>
        <time>2020-09-22T10:28:20Z</time>
      </trkpt>
      <trkpt lat="46.55927" lon="4.908">
        <ele>191</ele>
        <time>2020-09-22T10:28:46Z</time>
      </trkpt>
      <trkpt lat="46.55974" lon="4.90821">
        <ele>191</ele>
        <time>2020-09-22T10:28:57Z</time>
      </trkpt>
      <trkpt lat="46.55996" lon="4.90834">
        <ele>191</ele>
        <time>2020-09-22T10:29:03Z</time>
      </trkpt>
      <trkpt lat="46.56011" lon="4.9084">
        <ele>191</ele>
        <time>2020-09-22T10:29:07Z</time>
      </trkpt>
      <trkpt lat="46.56023" lon="4.90841">
        <ele>191</ele>
        <time>2020-09-22T10:29:09Z</time>
      </trkpt>
      <trkpt lat="46.56034" lon="4.9071">
        <ele>194</ele>
        <time>2020-09-22T10:29:31Z</time>
      </trkpt>
      <trkpt lat="46.56036" lon="4.90613">
        <ele>196</ele>
        <time>2020-09-22T10:29:46Z</time>
      </trkpt>
      <trkpt lat="46.56034" lon="4.90576">
        <ele>196</ele>
        <time>2020-09-22T10:29:52Z</time>
      </trkpt>
      <trkpt lat="46.56008" lon="4.90378">
        <ele>199</ele>
        <time>2020-09-22T10:30:25Z</time>
      </trkpt>
      <trkpt lat="46.56019" lon="4.901">
        <ele>203</ele>
        <time>2020-09-22T10:31:09Z</time>
      </trkpt>
      <trkpt lat="46.56027" lon="4.89805">
        <ele>207</ele>
        <time>2020-09-22T10:31:57Z</time>
      </trkpt>
      <trkpt lat="46.56028" lon="4.89521">
        <ele>213</ele>
        <time>2020-09-22T10:32:42Z</time>
      </trkpt>
      <trkpt lat="46.56026" lon="4.89496">
        <ele>213</ele>
        <time>2020-09-22T10:32:46Z</time>
      </trkpt>
      <trkpt lat="46.56033" lon="4.89477">
        <ele>213</ele>
        <time>2020-09-22T10:32:50Z</time>
      </trkpt>
      <trkpt lat="46.56062" lon="4.89239">
        <ele>217</ele>
        <time>2020-09-22T10:33:29Z</time>
      </trkpt>
      <trkpt lat="46.56063" lon="4.89209">
        <ele>216</ele>
        <time>2020-09-22T10:33:33Z</time>
      </trkpt>
      <trkpt lat="46.56061" lon="4.89147">
        <ele>215</ele>
        <time>2020-09-22T10:33:43Z</time>
      </trkpt>
      <trkpt lat="46.56057" lon="4.89109">
        <ele>215</ele>
        <time>2020-09-22T10:33:50Z</time>
      </trkpt>
      <trkpt lat="46.56039" lon="4.89">
        <ele>216</ele>
        <time>2020-09-22T10:34:08Z</time>
      </trkpt>
      <trkpt lat="46.5604" lon="4.8893">
        <ele>211</ele>
        <time>2020-09-22T10:34:19Z</time>
      </trkpt>
      <trkpt lat="46.56025" lon="4.88748">
        <ele>209</ele>
        <time>2020-09-22T10:34:48Z</time>
      </trkpt>
      <trkpt lat="46.56026" lon="4.8871">
        <ele>208</ele>
        <time>2020-09-22T10:34:54Z</time>
      </trkpt>
      <trkpt lat="46.56032" lon="4.8866">
        <ele>208</ele>
        <time>2020-09-22T10:35:02Z</time>
      </trkpt>
      <trkpt lat="46.56043" lon="4.8862">
        <ele>208</ele>
        <time>2020-09-22T10:35:09Z</time>
      </trkpt>
      <trkpt lat="46.56036" lon="4.88613">
        <ele>208</ele>
        <time>2020-09-22T10:35:11Z</time>
      </trkpt>
      <trkpt lat="46.56008" lon="4.88601">
        <ele>209</ele>
        <time>2020-09-22T10:35:18Z</time>
      </trkpt>
      <trkpt lat="46.55963" lon="4.88612">
        <ele>212</ele>
        <time>2020-09-22T10:35:29Z</time>
      </trkpt>
      <trkpt lat="46.55918" lon="4.886">
        <ele>217</ele>
        <time>2020-09-22T10:35:40Z</time>
      </trkpt>
      <trkpt lat="46.559" lon="4.88601">
        <ele>220</ele>
        <time>2020-09-22T10:35:44Z</time>
      </trkpt>
      <trkpt lat="46.55861" lon="4.88621">
        <ele>226</ele>
        <time>2020-09-22T10:35:53Z</time>
      </trkpt>
      <trkpt lat="46.55828" lon="4.88633">
        <ele>232</ele>
        <time>2020-09-22T10:36:01Z</time>
      </trkpt>
      <trkpt lat="46.55815" lon="4.88648">
        <ele>235</ele>
        <time>2020-09-22T10:36:05Z</time>
      </trkpt>
      <trkpt lat="46.55807" lon="4.88671">
        <ele>237</ele>
        <time>2020-09-22T10:36:09Z</time>
      </trkpt>
      <trkpt lat="46.55802" lon="4.88679">
        <ele>238</ele>
        <time>2020-09-22T10:36:11Z</time>
      </trkpt>
      <trkpt lat="46.55766" lon="4.88572">
        <ele>246</ele>
        <time>2020-09-22T10:36:30Z</time>
      </trkpt>
      <trkpt lat="46.55726" lon="4.88473">
        <ele>251</ele>
        <time>2020-09-22T10:36:49Z</time>
      </trkpt>
      <trkpt lat="46.5571" lon="4.8844">
        <ele>253</ele>
        <time>2020-09-22T10:36:55Z</time>
      </trkpt>
      <trkpt lat="46.55624" lon="4.88287">
        <ele>257</ele>
        <time>2020-09-22T10:37:27Z</time>
      </trkpt>
      <trkpt lat="46.55571" lon="4.88203">
        <ele>260</ele>
        <time>2020-09-22T10:37:45Z</time>
      </trkpt>
      <trkpt lat="46.55536" lon="4.88157">
        <ele>261</ele>
        <time>2020-09-22T10:37:56Z</time>
      </trkpt>
      <trkpt lat="46.55504" lon="4.8809">
        <ele>259</ele>
        <time>2020-09-22T10:38:09Z</time>
      </trkpt>
      <trkpt lat="46.55495" lon="4.88066">
        <ele>258</ele>
        <time>2020-09-22T10:38:14Z</time>
      </trkpt>
      <trkpt lat="46.55482" lon="4.88041">
        <ele>256</ele>
        <time>2020-09-22T10:38:19Z</time>
      </trkpt>
      <trkpt lat="46.55463" lon="4.88015">
        <ele>254</ele>
        <time>2020-09-22T10:38:25Z</time>
      </trkpt>
      <trkpt lat="46.55451" lon="4.88006">
        <ele>254</ele>
        <time>2020-09-22T10:38:28Z</time>
      </trkpt>
      <trkpt lat="46.554" lon="4.87984">
        <ele>254</ele>
        <time>2020-09-22T10:38:40Z</time>
      </trkpt>
      <trkpt lat="46.55377" lon="4.87964">
        <ele>253</ele>
        <time>2020-09-22T10:38:47Z</time>
      </trkpt>
      <trkpt lat="46.55354" lon="4.87938">
        <ele>253</ele>
        <time>2020-09-22T10:38:53Z</time>
      </trkpt>
      <trkpt lat="46.55346" lon="4.87945">
        <ele>253</ele>
        <time>2020-09-22T10:38:56Z</time>
      </trkpt>
      <trkpt lat="46.55336" lon="4.87949">
        <ele>253</ele>
        <time>2020-09-22T10:38:58Z</time>
      </trkpt>
      <trkpt lat="46.55314" lon="4.87954">
        <ele>254</ele>
        <time>2020-09-22T10:39:03Z</time>
      </trkpt>
      <trkpt lat="46.55293" lon="4.87955">
        <ele>255</ele>
        <time>2020-09-22T10:39:08Z</time>
      </trkpt>
      <trkpt lat="46.55263" lon="4.87948">
        <ele>255</ele>
        <time>2020-09-22T10:39:15Z</time>
      </trkpt>
      <trkpt lat="46.55217" lon="4.87919">
        <ele>257</ele>
        <time>2020-09-22T10:39:27Z</time>
      </trkpt>
      <trkpt lat="46.5521" lon="4.87906">
        <ele>257</ele>
        <time>2020-09-22T10:39:30Z</time>
      </trkpt>
      <trkpt lat="46.55192" lon="4.87895">
        <ele>259</ele>
        <time>2020-09-22T10:39:34Z</time>
      </trkpt>
      <trkpt lat="46.55174" lon="4.87879">
        <ele>260</ele>
        <time>2020-09-22T10:39:39Z</time>
      </trkpt>
      <trkpt lat="46.55114" lon="4.87818">
        <ele>263</ele>
        <time>2020-09-22T10:39:56Z</time>
      </trkpt>
      <trkpt lat="46.54991" lon="4.87706">
        <ele>276</ele>
        <time>2020-09-22T10:40:30Z</time>
      </trkpt>
      <trkpt lat="46.54895" lon="4.87635">
        <ele>283</ele>
        <time>2020-09-22T10:40:55Z</time>
      </trkpt>
      <trkpt lat="46.54924" lon="4.87636">
        <ele>284</ele>
        <time>2020-09-22T10:41:02Z</time>
      </trkpt>
      <trkpt lat="46.54968" lon="4.87631">
        <ele>283</ele>
        <time>2020-09-22T10:41:12Z</time>
      </trkpt>
      <trkpt lat="46.5498" lon="4.87626">
        <ele>283</ele>
        <time>2020-09-22T10:41:15Z</time>
      </trkpt>
      <trkpt lat="46.54985" lon="4.87612">
        <ele>284</ele>
        <time>2020-09-22T10:41:18Z</time>
      </trkpt>
      <trkpt lat="46.54984" lon="4.87597">
        <ele>285</ele>
        <time>2020-09-22T10:41:20Z</time>
      </trkpt>
      <trkpt lat="46.54971" lon="4.87578">
        <ele>288</ele>
        <time>2020-09-22T10:41:25Z</time>
      </trkpt>
      <trkpt lat="46.54954" lon="4.87559">
        <ele>291</ele>
        <time>2020-09-22T10:41:30Z</time>
      </trkpt>
      <trkpt lat="46.54941" lon="4.87526">
        <ele>295</ele>
        <time>2020-09-22T10:41:36Z</time>
      </trkpt>
      <trkpt lat="46.54895" lon="4.87464">
        <ele>305</ele>
        <time>2020-09-22T10:41:50Z</time>
      </trkpt>
      <trkpt lat="46.54867" lon="4.87413">
        <ele>314</ele>
        <time>2020-09-22T10:42:01Z</time>
      </trkpt>
      <trkpt lat="46.5488" lon="4.87391">
        <ele>314</ele>
        <time>2020-09-22T10:42:05Z</time>
      </trkpt>
      <trkpt lat="46.54923" lon="4.87283">
        <ele>313</ele>
        <time>2020-09-22T10:42:25Z</time>
      </trkpt>
      <trkpt lat="46.54932" lon="4.87265">
        <ele>313</ele>
        <time>2020-09-22T10:42:29Z</time>
      </trkpt>
      <trkpt lat="46.54937" lon="4.8726">
        <ele>312</ele>
        <time>2020-09-22T10:42:30Z</time>
      </trkpt>
      <trkpt lat="46.54944" lon="4.87258">
        <ele>312</ele>
        <time>2020-09-22T10:42:32Z</time>
      </trkpt>
      <trkpt lat="46.54963" lon="4.8726">
        <ele>310</ele>
        <time>2020-09-22T10:42:37Z</time>
      </trkpt>
      <trkpt lat="46.54972" lon="4.87267">
        <ele>309</ele>
        <time>2020-09-22T10:42:39Z</time>
      </trkpt>
      <trkpt lat="46.54976" lon="4.87289">
        <ele>308</ele>
        <time>2020-09-22T10:42:43Z</time>
      </trkpt>
      <trkpt lat="46.54984" lon="4.87307">
        <ele>306</ele>
        <time>2020-09-22T10:42:46Z</time>
      </trkpt>
      <trkpt lat="46.54993" lon="4.87311">
        <ele>305</ele>
        <time>2020-09-22T10:42:48Z</time>
      </trkpt>
      <trkpt lat="46.54999" lon="4.87281">
        <ele>305</ele>
        <time>2020-09-22T10:42:53Z</time>
      </trkpt>
      <trkpt lat="46.55022" lon="4.87232">
        <ele>307</ele>
        <time>2020-09-22T10:43:03Z</time>
      </trkpt>
      <trkpt lat="46.55062" lon="4.87157">
        <ele>305</ele>
        <time>2020-09-22T10:43:18Z</time>
      </trkpt>
      <trkpt lat="46.55096" lon="4.87111">
        <ele>304</ele>
        <time>2020-09-22T10:43:29Z</time>
      </trkpt>
      <trkpt lat="46.5515" lon="4.87048">
        <ele>300</ele>
        <time>2020-09-22T10:43:45Z</time>
      </trkpt>
      <trkpt lat="46.55166" lon="4.87019">
        <ele>298</ele>
        <time>2020-09-22T10:43:51Z</time>
      </trkpt>
      <trkpt lat="46.55179" lon="4.86988">
        <ele>298</ele>
        <time>2020-09-22T10:43:57Z</time>
      </trkpt>
      <trkpt lat="46.55185" lon="4.86967">
        <ele>299</ele>
        <time>2020-09-22T10:44:00Z</time>
      </trkpt>
      <trkpt lat="46.55207" lon="4.86848">
        <ele>297</ele>
        <time>2020-09-22T10:44:20Z</time>
      </trkpt>
      <trkpt lat="46.55231" lon="4.86767">
        <ele>289</ele>
        <time>2020-09-22T10:44:34Z</time>
      </trkpt>
      <trkpt lat="46.55234" lon="4.86735">
        <ele>286</ele>
        <time>2020-09-22T10:44:40Z</time>
      </trkpt>
      <trkpt lat="46.55229" lon="4.8667">
        <ele>281</ele>
        <time>2020-09-22T10:44:50Z</time>
      </trkpt>
      <trkpt lat="46.55205" lon="4.8658">
        <ele>275</ele>
        <time>2020-09-22T10:45:06Z</time>
      </trkpt>
      <trkpt lat="46.55163" lon="4.86475">
        <ele>273</ele>
        <time>2020-09-22T10:45:25Z</time>
      </trkpt>
      <trkpt lat="46.5513" lon="4.86409">
        <ele>271</ele>
        <time>2020-09-22T10:45:38Z</time>
      </trkpt>
      <trkpt lat="46.55101" lon="4.86339">
        <ele>268</ele>
        <time>2020-09-22T10:45:51Z</time>
      </trkpt>
      <trkpt lat="46.55076" lon="4.86274">
        <ele>267</ele>
        <time>2020-09-22T10:46:03Z</time>
      </trkpt>
      <trkpt lat="46.55073" lon="4.86257">
        <ele>266</ele>
        <time>2020-09-22T10:46:06Z</time>
      </trkpt>
      <trkpt lat="46.55059" lon="4.86224">
        <ele>264</ele>
        <time>2020-09-22T10:46:12Z</time>
      </trkpt>
      <trkpt lat="46.55036" lon="4.86154">
        <ele>259</ele>
        <time>2020-09-22T10:46:25Z</time>
      </trkpt>
      <trkpt lat="46.55031" lon="4.86094">
        <ele>255</ele>
        <time>2020-09-22T10:46:35Z</time>
      </trkpt>
      <trkpt lat="46.55037" lon="4.85998">
        <ele>252</ele>
        <time>2020-09-22T10:46:50Z</time>
      </trkpt>
      <trkpt lat="46.55033" lon="4.85949">
        <ele>251</ele>
        <time>2020-09-22T10:46:58Z</time>
      </trkpt>
      <trkpt lat="46.55028" lon="4.85918">
        <ele>251</ele>
        <time>2020-09-22T10:47:03Z</time>
      </trkpt>
      <trkpt lat="46.55014" lon="4.85886">
        <ele>251</ele>
        <time>2020-09-22T10:47:09Z</time>
      </trkpt>
      <trkpt lat="46.55001" lon="4.85872">
        <ele>252</ele>
        <time>2020-09-22T10:47:13Z</time>
      </trkpt>
      <trkpt lat="46.54977" lon="4.85851">
        <ele>252</ele>
        <time>2020-09-22T10:47:19Z</time>
      </trkpt>
      <trkpt lat="46.54938" lon="4.85823">
        <ele>252</ele>
        <time>2020-09-22T10:47:30Z</time>
      </trkpt>
      <trkpt lat="46.54905" lon="4.85794">
        <ele>251</ele>
        <time>2020-09-22T10:47:39Z</time>
      </trkpt>
      <trkpt lat="46.54899" lon="4.85787">
        <ele>251</ele>
        <time>2020-09-22T10:47:40Z</time>
      </trkpt>
      <trkpt lat="46.54899" lon="4.85782">
        <ele>251</ele>
        <time>2020-09-22T10:47:41Z</time>
      </trkpt>
      <trkpt lat="46.54974" lon="4.85722">
        <ele>247</ele>
        <time>2020-09-22T10:48:01Z</time>
      </trkpt>
      <trkpt lat="46.5498" lon="4.85718">
        <ele>247</ele>
        <time>2020-09-22T10:48:03Z</time>
      </trkpt>
      <trkpt lat="46.54997" lon="4.85715">
        <ele>247</ele>
        <time>2020-09-22T10:48:07Z</time>
      </trkpt>
      <trkpt lat="46.55018" lon="4.85722">
        <ele>246</ele>
        <time>2020-09-22T10:48:12Z</time>
      </trkpt>
      <trkpt lat="46.55106" lon="4.85773">
        <ele>244</ele>
        <time>2020-09-22T10:48:34Z</time>
      </trkpt>
      <trkpt lat="46.55123" lon="4.85742">
        <ele>242</ele>
        <time>2020-09-22T10:48:40Z</time>
      </trkpt>
      <trkpt lat="46.55174" lon="4.85601">
        <ele>237</ele>
        <time>2020-09-22T10:49:06Z</time>
      </trkpt>
      <trkpt lat="46.55215" lon="4.85479">
        <ele>230</ele>
        <time>2020-09-22T10:49:28Z</time>
      </trkpt>
      <trkpt lat="46.55214" lon="4.85411">
        <ele>229</ele>
        <time>2020-09-22T10:49:39Z</time>
      </trkpt>
      <trkpt lat="46.55221" lon="4.85363">
        <ele>229</ele>
        <time>2020-09-22T10:49:46Z</time>
      </trkpt>
      <trkpt lat="46.55227" lon="4.85343">
        <ele>229</ele>
        <time>2020-09-22T10:49:50Z</time>
      </trkpt>
      <trkpt lat="46.55246" lon="4.85314">
        <ele>231</ele>
        <time>2020-09-22T10:49:56Z</time>
      </trkpt>
      <trkpt lat="46.5523" lon="4.85302">
        <ele>231</ele>
        <time>2020-09-22T10:50:01Z</time>
      </trkpt>
      <trkpt lat="46.55143" lon="4.85277">
        <ele>229</ele>
        <time>2020-09-22T10:50:21Z</time>
      </trkpt>
      <trkpt lat="46.55086" lon="4.85255">
        <ele>229</ele>
        <time>2020-09-22T10:50:35Z</time>
      </trkpt>
      <trkpt lat="46.54996" lon="4.85208">
        <ele>230</ele>
        <time>2020-09-22T10:50:57Z</time>
      </trkpt>
      <trkpt lat="46.54975" lon="4.85201">
        <ele>230</ele>
        <time>2020-09-22T10:51:02Z</time>
      </trkpt>
      <trkpt lat="46.54956" lon="4.85197">
        <ele>231</ele>
        <time>2020-09-22T10:51:07Z</time>
      </trkpt>
      <trkpt lat="46.54927" lon="4.85198">
        <ele>231</ele>
        <time>2020-09-22T10:51:14Z</time>
      </trkpt>
      <trkpt lat="46.54885" lon="4.8521">
        <ele>231</ele>
        <time>2020-09-22T10:51:24Z</time>
      </trkpt>
      <trkpt lat="46.5486" lon="4.8521">
        <ele>232</ele>
        <time>2020-09-22T10:51:30Z</time>
      </trkpt>
      <trkpt lat="46.54844" lon="4.85207">
        <ele>232</ele>
        <time>2020-09-22T10:51:33Z</time>
      </trkpt>
      <trkpt lat="46.54832" lon="4.85202">
        <ele>233</ele>
        <time>2020-09-22T10:51:36Z</time>
      </trkpt>
      <trkpt lat="46.54812" lon="4.85188">
        <ele>232</ele>
        <time>2020-09-22T10:51:41Z</time>
      </trkpt>
      <trkpt lat="46.54819" lon="4.85176">
        <ele>233</ele>
        <time>2020-09-22T10:51:44Z</time>
      </trkpt>
      <trkpt lat="46.54833" lon="4.85163">
        <ele>235</ele>
        <time>2020-09-22T10:51:48Z</time>
      </trkpt>
      <trkpt lat="46.5487" lon="4.85153">
        <ele>236</ele>
        <time>2020-09-22T10:51:57Z</time>
      </trkpt>
      <trkpt lat="46.54897" lon="4.85139">
        <ele>237</ele>
        <time>2020-09-22T10:52:03Z</time>
      </trkpt>
      <trkpt lat="46.54963" lon="4.85073">
        <ele>244</ele>
        <time>2020-09-22T10:52:22Z</time>
      </trkpt>
      <trkpt lat="46.55037" lon="4.85014">
        <ele>249</ele>
        <time>2020-09-22T10:52:42Z</time>
      </trkpt>
      <trkpt lat="46.54965" lon="4.84982">
        <ele>257</ele>
        <time>2020-09-22T10:52:59Z</time>
      </trkpt>
      <trkpt lat="46.54923" lon="4.84949">
        <ele>265</ele>
        <time>2020-09-22T10:53:10Z</time>
      </trkpt>
      <trkpt lat="46.54865" lon="4.8492">
        <ele>271</ele>
        <time>2020-09-22T10:53:25Z</time>
      </trkpt>
      <trkpt lat="46.54812" lon="4.84874">
        <ele>280</ele>
        <time>2020-09-22T10:53:39Z</time>
      </trkpt>
      <trkpt lat="46.54704" lon="4.84761">
        <ele>288</ele>
        <time>2020-09-22T10:54:10Z</time>
      </trkpt>
      <trkpt lat="46.54651" lon="4.84701">
        <ele>288</ele>
        <time>2020-09-22T10:54:26Z</time>
      </trkpt>
      <trkpt lat="46.54588" lon="4.8464">
        <ele>282</ele>
        <time>2020-09-22T10:54:44Z</time>
      </trkpt>
      <trkpt lat="46.54546" lon="4.84613">
        <ele>274</ele>
        <time>2020-09-22T10:54:54Z</time>
      </trkpt>
      <trkpt lat="46.54515" lon="4.84581">
        <ele>269</ele>
        <time>2020-09-22T10:55:03Z</time>
      </trkpt>
      <trkpt lat="46.54487" lon="4.84546">
        <ele>261</ele>
        <time>2020-09-22T10:55:12Z</time>
      </trkpt>
      <trkpt lat="46.54475" lon="4.84536">
        <ele>258</ele>
        <time>2020-09-22T10:55:15Z</time>
      </trkpt>
      <trkpt lat="46.5449" lon="4.84511">
        <ele>260</ele>
        <time>2020-09-22T10:55:20Z</time>
      </trkpt>
      <trkpt lat="46.54506" lon="4.8449">
        <ele>262</ele>
        <time>2020-09-22T10:55:25Z</time>
      </trkpt>
      <trkpt lat="46.54527" lon="4.84448">
        <ele>264</ele>
        <time>2020-09-22T10:55:34Z</time>
      </trkpt>
      <trkpt lat="46.54553" lon="4.84405">
        <ele>267</ele>
        <time>2020-09-22T10:55:43Z</time>
      </trkpt>
      <trkpt lat="46.54555" lon="4.84347">
        <ele>257</ele>
        <time>2020-09-22T10:55:52Z</time>
      </trkpt>
      <trkpt lat="46.54546" lon="4.84318">
        <ele>252</ele>
        <time>2020-09-22T10:55:57Z</time>
      </trkpt>
      <trkpt lat="46.54547" lon="4.84268">
        <ele>248</ele>
        <time>2020-09-22T10:56:05Z</time>
      </trkpt>
      <trkpt lat="46.54535" lon="4.84252">
        <ele>244</ele>
        <time>2020-09-22T10:56:09Z</time>
      </trkpt>
      <trkpt lat="46.5455" lon="4.84187">
        <ele>246</ele>
        <time>2020-09-22T10:56:20Z</time>
      </trkpt>
      <trkpt lat="46.54557" lon="4.84168">
        <ele>247</ele>
        <time>2020-09-22T10:56:24Z</time>
      </trkpt>
      <trkpt lat="46.54566" lon="4.84153">
        <ele>248</ele>
        <time>2020-09-22T10:56:27Z</time>
      </trkpt>
      <trkpt lat="46.5459" lon="4.84135">
        <ele>252</ele>
        <time>2020-09-22T10:56:33Z</time>
      </trkpt>
      <trkpt lat="46.5462" lon="4.84125">
        <ele>254</ele>
        <time>2020-09-22T10:56:40Z</time>
      </trkpt>
      <trkpt lat="46.54657" lon="4.84119">
        <ele>257</ele>
        <time>2020-09-22T10:56:49Z</time>
      </trkpt>
      <trkpt lat="46.54683" lon="4.841">
        <ele>257</ele>
        <time>2020-09-22T10:56:56Z</time>
      </trkpt>
      <trkpt lat="46.54697" lon="4.84085">
        <ele>257</ele>
        <time>2020-09-22T10:57:00Z</time>
      </trkpt>
      <trkpt lat="46.54709" lon="4.84067">
        <ele>258</ele>
        <time>2020-09-22T10:57:04Z</time>
      </trkpt>
      <trkpt lat="46.54715" lon="4.84042">
        <ele>259</ele>
        <time>2020-09-22T10:57:08Z</time>
      </trkpt>
      <trkpt lat="46.54719" lon="4.84034">
        <ele>259</ele>
        <time>2020-09-22T10:57:10Z</time>
      </trkpt>
      <trkpt lat="46.54726" lon="4.84034">
        <ele>259</ele>
        <time>2020-09-22T10:57:11Z</time>
      </trkpt>
      <trkpt lat="46.54751" lon="4.84054">
        <ele>258</ele>
        <time>2020-09-22T10:57:18Z</time>
      </trkpt>
      <trkpt lat="46.54754" lon="4.84054">
        <ele>259</ele>
        <time>2020-09-22T10:57:19Z</time>
      </trkpt>
      <trkpt lat="46.54775" lon="4.84038">
        <ele>262</ele>
        <time>2020-09-22T10:57:24Z</time>
      </trkpt>
      <trkpt lat="46.54794" lon="4.84027">
        <ele>265</ele>
        <time>2020-09-22T10:57:29Z</time>
      </trkpt>
      <trkpt lat="46.54837" lon="4.84007">
        <ele>271</ele>
        <time>2020-09-22T10:57:40Z</time>
      </trkpt>
      <trkpt lat="46.5485" lon="4.83993">
        <ele>273</ele>
        <time>2020-09-22T10:57:43Z</time>
      </trkpt>
      <trkpt lat="46.54871" lon="4.8398">
        <ele>276</ele>
        <time>2020-09-22T10:57:49Z</time>
      </trkpt>
      <trkpt lat="46.54888" lon="4.83961">
        <ele>278</ele>
        <time>2020-09-22T10:57:54Z</time>
      </trkpt>
      <trkpt lat="46.54897" lon="4.83899">
        <ele>281</ele>
        <time>2020-09-22T10:58:04Z</time>
      </trkpt>
      <trkpt lat="46.54898" lon="4.83873">
        <ele>281</ele>
        <time>2020-09-22T10:58:08Z</time>
      </trkpt>
      <trkpt lat="46.54897" lon="4.83857">
        <ele>281</ele>
        <time>2020-09-22T10:58:11Z</time>
      </trkpt>
      <trkpt lat="46.54872" lon="4.83799">
        <ele>280</ele>
        <time>2020-09-22T10:58:22Z</time>
      </trkpt>
      <trkpt lat="46.54848" lon="4.83728">
        <ele>280</ele>
        <time>2020-09-22T10:58:34Z</time>
      </trkpt>
      <trkpt lat="46.54803" lon="4.83711">
        <ele>277</ele>
        <time>2020-09-22T10:58:45Z</time>
      </trkpt>
      <trkpt lat="46.54737" lon="4.83699">
        <ele>273</ele>
        <time>2020-09-22T10:59:01Z</time>
      </trkpt>
      <trkpt lat="46.54728" lon="4.837">
        <ele>274</ele>
        <time>2020-09-22T10:59:03Z</time>
      </trkpt>
      <trkpt lat="46.54706" lon="4.83718">
        <ele>274</ele>
        <time>2020-09-22T10:59:09Z</time>
      </trkpt>
      <trkpt lat="46.54663" lon="4.83767">
        <ele>274</ele>
        <time>2020-09-22T10:59:22Z</time>
      </trkpt>
      <trkpt lat="46.54638" lon="4.8377">
        <ele>274</ele>
        <time>2020-09-22T10:59:27Z</time>
      </trkpt>
      <trkpt lat="46.5463" lon="4.83773">
        <ele>274</ele>
        <time>2020-09-22T10:59:29Z</time>
      </trkpt>
      <trkpt lat="46.54605" lon="4.83794">
        <ele>273</ele>
        <time>2020-09-22T10:59:36Z</time>
      </trkpt>
      <trkpt lat="46.54594" lon="4.83797">
        <ele>273</ele>
        <time>2020-09-22T10:59:39Z</time>
      </trkpt>
      <trkpt lat="46.54584" lon="4.83792">
        <ele>273</ele>
        <time>2020-09-22T10:59:41Z</time>
      </trkpt>
      <trkpt lat="46.54543" lon="4.83738">
        <ele>274</ele>
        <time>2020-09-22T10:59:54Z</time>
      </trkpt>
      <trkpt lat="46.54559" lon="4.8369">
        <ele>278</ele>
        <time>2020-09-22T11:00:03Z</time>
      </trkpt>
      <trkpt lat="46.54552" lon="4.83672">
        <ele>279</ele>
        <time>2020-09-22T11:00:06Z</time>
      </trkpt>
      <trkpt lat="46.54549" lon="4.83648">
        <ele>280</ele>
        <time>2020-09-22T11:00:10Z</time>
      </trkpt>
      <trkpt lat="46.54543" lon="4.83635">
        <ele>280</ele>
        <time>2020-09-22T11:00:12Z</time>
      </trkpt>
      <trkpt lat="46.54532" lon="4.83622">
        <ele>281</ele>
        <time>2020-09-22T11:00:16Z</time>
      </trkpt>
      <trkpt lat="46.54511" lon="4.83605">
        <ele>281</ele>
        <time>2020-09-22T11:00:21Z</time>
      </trkpt>
      <trkpt lat="46.54509" lon="4.83578">
        <ele>282</ele>
        <time>2020-09-22T11:00:26Z</time>
      </trkpt>
      <trkpt lat="46.54514" lon="4.83538">
        <ele>285</ele>
        <time>2020-09-22T11:00:32Z</time>
      </trkpt>
      <trkpt lat="46.5451" lon="4.83508">
        <ele>286</ele>
        <time>2020-09-22T11:00:37Z</time>
      </trkpt>
      <trkpt lat="46.54468" lon="4.83383">
        <ele>294</ele>
        <time>2020-09-22T11:01:00Z</time>
      </trkpt>
      <trkpt lat="46.54458" lon="4.83361">
        <ele>294</ele>
        <time>2020-09-22T11:01:04Z</time>
      </trkpt>
      <trkpt lat="46.54423" lon="4.83307">
        <ele>295</ele>
        <time>2020-09-22T11:01:16Z</time>
      </trkpt>
      <trkpt lat="46.5441" lon="4.83271">
        <ele>296</ele>
        <time>2020-09-22T11:01:22Z</time>
      </trkpt>
      <trkpt lat="46.54411" lon="4.83262">
        <ele>297</ele>
        <time>2020-09-22T11:01:24Z</time>
      </trkpt>
      <trkpt lat="46.54425" lon="4.83225">
        <ele>301</ele>
        <time>2020-09-22T11:01:30Z</time>
      </trkpt>
      <trkpt lat="46.54431" lon="4.83185">
        <ele>304</ele>
        <time>2020-09-22T11:01:37Z</time>
      </trkpt>
      <trkpt lat="46.5443" lon="4.83161">
        <ele>306</ele>
        <time>2020-09-22T11:01:41Z</time>
      </trkpt>
      <trkpt lat="46.54407" lon="4.83071">
        <ele>311</ele>
        <time>2020-09-22T11:01:56Z</time>
      </trkpt>
      <trkpt lat="46.54409" lon="4.83046">
        <ele>313</ele>
        <time>2020-09-22T11:02:00Z</time>
      </trkpt>
      <trkpt lat="46.54426" lon="4.82997">
        <ele>319</ele>
        <time>2020-09-22T11:02:09Z</time>
      </trkpt>
      <trkpt lat="46.54471" lon="4.82845">
        <ele>335</ele>
        <time>2020-09-22T11:02:36Z</time>
      </trkpt>
      <trkpt lat="46.54477" lon="4.82799">
        <ele>340</ele>
        <time>2020-09-22T11:02:43Z</time>
      </trkpt>
      <trkpt lat="46.54482" lon="4.82779">
        <ele>342</ele>
        <time>2020-09-22T11:02:47Z</time>
      </trkpt>
      <trkpt lat="46.54488" lon="4.82729">
        <ele>345</ele>
        <time>2020-09-22T11:02:55Z</time>
      </trkpt>
      <trkpt lat="46.54488" lon="4.82677">
        <ele>348</ele>
        <time>2020-09-22T11:03:03Z</time>
      </trkpt>
      <trkpt lat="46.54484" lon="4.82602">
        <ele>348</ele>
        <time>2020-09-22T11:03:15Z</time>
      </trkpt>
      <trkpt lat="46.54488" lon="4.82546">
        <ele>344</ele>
        <time>2020-09-22T11:03:24Z</time>
      </trkpt>
      <trkpt lat="46.54491" lon="4.8254">
        <ele>343</ele>
        <time>2020-09-22T11:03:26Z</time>
      </trkpt>
      <trkpt lat="46.54506" lon="4.82534">
        <ele>342</ele>
        <time>2020-09-22T11:03:29Z</time>
      </trkpt>
      <trkpt lat="46.5452" lon="4.82535">
        <ele>340</ele>
        <time>2020-09-22T11:03:32Z</time>
      </trkpt>
      <trkpt lat="46.54569" lon="4.82549">
        <ele>338</ele>
        <time>2020-09-22T11:03:44Z</time>
      </trkpt>
      <trkpt lat="46.54593" lon="4.82553">
        <ele>337</ele>
        <time>2020-09-22T11:03:50Z</time>
      </trkpt>
      <trkpt lat="46.54607" lon="4.82545">
        <ele>334</ele>
        <time>2020-09-22T11:03:53Z</time>
      </trkpt>
      <trkpt lat="46.54614" lon="4.82535">
        <ele>332</ele>
        <time>2020-09-22T11:03:56Z</time>
      </trkpt>
      <trkpt lat="46.54664" lon="4.8257">
        <ele>331</ele>
        <time>2020-09-22T11:04:09Z</time>
      </trkpt>
      <trkpt lat="46.54697" lon="4.8259">
        <ele>330</ele>
        <time>2020-09-22T11:04:17Z</time>
      </trkpt>
      <trkpt lat="46.54715" lon="4.82596">
        <ele>328</ele>
        <time>2020-09-22T11:04:21Z</time>
      </trkpt>
      <trkpt lat="46.54844" lon="4.82677">
        <ele>322</ele>
        <time>2020-09-22T11:04:54Z</time>
      </trkpt>
      <trkpt lat="46.54926" lon="4.82742">
        <ele>316</ele>
        <time>2020-09-22T11:05:16Z</time>
      </trkpt>
      <trkpt lat="46.54959" lon="4.82765">
        <ele>312</ele>
        <time>2020-09-22T11:05:24Z</time>
      </trkpt>
      <trkpt lat="46.55088" lon="4.82907">
        <ele>301</ele>
        <time>2020-09-22T11:06:02Z</time>
      </trkpt>
      <trkpt lat="46.55152" lon="4.82973">
        <ele>299</ele>
        <time>2020-09-22T11:06:20Z</time>
      </trkpt>
      <trkpt lat="46.55209" lon="4.83043">
        <ele>299</ele>
        <time>2020-09-22T11:06:38Z</time>
      </trkpt>
      <trkpt lat="46.55258" lon="4.83083">
        <ele>291</ele>
        <time>2020-09-22T11:06:51Z</time>
      </trkpt>
      <trkpt lat="46.55306" lon="4.82976">
        <ele>268</ele>
        <time>2020-09-22T11:07:12Z</time>
      </trkpt>
      <trkpt lat="46.5531" lon="4.82951">
        <ele>266</ele>
        <time>2020-09-22T11:07:16Z</time>
      </trkpt>
      <trkpt lat="46.55317" lon="4.82927">
        <ele>263</ele>
        <time>2020-09-22T11:07:20Z</time>
      </trkpt>
      <trkpt lat="46.55338" lon="4.82874">
        <ele>258</ele>
        <time>2020-09-22T11:07:30Z</time>
      </trkpt>
      <trkpt lat="46.55338" lon="4.82838">
        <ele>258</ele>
        <time>2020-09-22T11:07:35Z</time>
      </trkpt>
      <trkpt lat="46.55342" lon="4.8283">
        <ele>258</ele>
        <time>2020-09-22T11:07:37Z</time>
      </trkpt>
      <trkpt lat="46.55345" lon="4.82825">
        <ele>258</ele>
        <time>2020-09-22T11:07:38Z</time>
      </trkpt>
      <trkpt lat="46.55406" lon="4.82792">
        <ele>259</ele>
        <time>2020-09-22T11:07:53Z</time>
      </trkpt>
      <trkpt lat="46.55442" lon="4.8273">
        <ele>261</ele>
        <time>2020-09-22T11:08:06Z</time>
      </trkpt>
      <trkpt lat="46.55449" lon="4.82714">
        <ele>262</ele>
        <time>2020-09-22T11:08:09Z</time>
      </trkpt>
      <trkpt lat="46.55452" lon="4.82702">
        <ele>262</ele>
        <time>2020-09-22T11:08:11Z</time>
      </trkpt>
      <trkpt lat="46.55453" lon="4.82674">
        <ele>263</ele>
        <time>2020-09-22T11:08:16Z</time>
      </trkpt>
      <trkpt lat="46.55452" lon="4.82657">
        <ele>263</ele>
        <time>2020-09-22T11:08:19Z</time>
      </trkpt>
      <trkpt lat="46.55444" lon="4.82624">
        <ele>265</ele>
        <time>2020-09-22T11:08:24Z</time>
      </trkpt>
      <trkpt lat="46.55474" lon="4.82588">
        <ele>270</ele>
        <time>2020-09-22T11:08:33Z</time>
      </trkpt>
      <trkpt lat="46.55479" lon="4.82591">
        <ele>271</ele>
        <time>2020-09-22T11:08:35Z</time>
      </trkpt>
      <trkpt lat="46.55507" lon="4.82597">
        <ele>273</ele>
        <time>2020-09-22T11:08:41Z</time>
      </trkpt>
      <trkpt lat="46.5551" lon="4.82595">
        <ele>273</ele>
        <time>2020-09-22T11:08:42Z</time>
      </trkpt>
      <trkpt lat="46.55513" lon="4.82568">
        <ele>276</ele>
        <time>2020-09-22T11:08:46Z</time>
      </trkpt>
      <trkpt lat="46.55534" lon="4.82528">
        <ele>281</ele>
        <time>2020-09-22T11:08:54Z</time>
      </trkpt>
      <trkpt lat="46.55539" lon="4.82527">
        <ele>282</ele>
        <time>2020-09-22T11:08:56Z</time>
      </trkpt>
      <trkpt lat="46.55557" lon="4.82541">
        <ele>284</ele>
        <time>2020-09-22T11:09:00Z</time>
      </trkpt>
      <trkpt lat="46.55563" lon="4.82539">
        <ele>285</ele>
        <time>2020-09-22T11:09:02Z</time>
      </trkpt>
      <trkpt lat="46.55595" lon="4.82494">
        <ele>292</ele>
        <time>2020-09-22T11:09:12Z</time>
      </trkpt>
      <trkpt lat="46.55606" lon="4.82471">
        <ele>294</ele>
        <time>2020-09-22T11:09:17Z</time>
      </trkpt>
      <trkpt lat="46.55625" lon="4.82481">
        <ele>295</ele>
        <time>2020-09-22T11:09:21Z</time>
      </trkpt>
      <trkpt lat="46.55679" lon="4.82468">
        <ele>298</ele>
        <time>2020-09-22T11:09:34Z</time>
      </trkpt>
      <trkpt lat="46.55695" lon="4.82467">
        <ele>298</ele>
        <time>2020-09-22T11:09:38Z</time>
      </trkpt>
      <trkpt lat="46.55724" lon="4.8247">
        <ele>298</ele>
        <time>2020-09-22T11:09:45Z</time>
      </trkpt>
      <trkpt lat="46.55784" lon="4.82481">
        <ele>298</ele>
        <time>2020-09-22T11:09:59Z</time>
      </trkpt>
      <trkpt lat="46.55797" lon="4.82482">
        <ele>297</ele>
        <time>2020-09-22T11:10:02Z</time>
      </trkpt>
      <trkpt lat="46.55811" lon="4.82477">
        <ele>296</ele>
        <time>2020-09-22T11:10:05Z</time>
      </trkpt>
      <trkpt lat="46.55823" lon="4.82457">
        <ele>294</ele>
        <time>2020-09-22T11:10:10Z</time>
      </trkpt>
      <trkpt lat="46.55877" lon="4.82331">
        <ele>291</ele>
        <time>2020-09-22T11:10:33Z</time>
      </trkpt>
      <trkpt lat="46.55898" lon="4.82269">
        <ele>293</ele>
        <time>2020-09-22T11:10:45Z</time>
      </trkpt>
      <trkpt lat="46.55905" lon="4.82258">
        <ele>293</ele>
        <time>2020-09-22T11:10:47Z</time>
      </trkpt>
      <trkpt lat="46.55928" lon="4.82184">
        <ele>302</ele>
        <time>2020-09-22T11:11:00Z</time>
      </trkpt>
      <trkpt lat="46.55931" lon="4.82178">
        <ele>302</ele>
        <time>2020-09-22T11:11:01Z</time>
      </trkpt>
      <trkpt lat="46.5594" lon="4.82171">
        <ele>303</ele>
        <time>2020-09-22T11:11:04Z</time>
      </trkpt>
      <trkpt lat="46.55949" lon="4.8217">
        <ele>304</ele>
        <time>2020-09-22T11:11:06Z</time>
      </trkpt>
      <trkpt lat="46.55995" lon="4.82179">
        <ele>304</ele>
        <time>2020-09-22T11:11:16Z</time>
      </trkpt>
      <trkpt lat="46.56012" lon="4.82176">
        <ele>305</ele>
        <time>2020-09-22T11:11:20Z</time>
      </trkpt>
      <trkpt lat="46.56018" lon="4.82171">
        <ele>306</ele>
        <time>2020-09-22T11:11:22Z</time>
      </trkpt>
      <trkpt lat="46.56062" lon="4.82112">
        <ele>315</ele>
        <time>2020-09-22T11:11:36Z</time>
      </trkpt>
      <trkpt lat="46.56068" lon="4.82106">
        <ele>316</ele>
        <time>2020-09-22T11:11:38Z</time>
      </trkpt>
      <trkpt lat="46.5608" lon="4.82103">
        <ele>317</ele>
        <time>2020-09-22T11:11:41Z</time>
      </trkpt>
      <trkpt lat="46.56103" lon="4.82111">
        <ele>318</ele>
        <time>2020-09-22T11:11:46Z</time>
      </trkpt>
      <trkpt lat="46.5613" lon="4.82129">
        <ele>318</ele>
        <time>2020-09-22T11:11:53Z</time>
      </trkpt>
      <trkpt lat="46.56147" lon="4.82137">
        <ele>318</ele>
        <time>2020-09-22T11:11:57Z</time>
      </trkpt>
      <trkpt lat="46.5618" lon="4.82148">
        <ele>318</ele>
        <time>2020-09-22T11:12:05Z</time>
      </trkpt>
      <trkpt lat="46.56214" lon="4.82163">
        <ele>318</ele>
        <time>2020-09-22T11:12:13Z</time>
      </trkpt>
      <trkpt lat="46.56283" lon="4.8218">
        <ele>320</ele>
        <time>2020-09-22T11:12:30Z</time>
      </trkpt>
      <trkpt lat="46.56306" lon="4.82191">
        <ele>321</ele>
        <time>2020-09-22T11:12:35Z</time>
      </trkpt>
      <trkpt lat="46.56324" lon="4.82202">
        <ele>321</ele>
        <time>2020-09-22T11:12:40Z</time>
      </trkpt>
      <trkpt lat="46.56384" lon="4.82251">
        <ele>328</ele>
        <time>2020-09-22T11:12:56Z</time>
      </trkpt>
      <trkpt lat="46.56416" lon="4.82268">
        <ele>331</ele>
        <time>2020-09-22T11:13:04Z</time>
      </trkpt>
      <trkpt lat="46.56444" lon="4.82268">
        <ele>336</ele>
        <time>2020-09-22T11:13:11Z</time>
      </trkpt>
      <trkpt lat="46.56487" lon="4.82263">
        <ele>345</ele>
        <time>2020-09-22T11:13:21Z</time>
      </trkpt>
      <trkpt lat="46.56514" lon="4.82246">
        <ele>351</ele>
        <time>2020-09-22T11:13:28Z</time>
      </trkpt>
      <trkpt lat="46.56574" lon="4.82225">
        <ele>358</ele>
        <time>2020-09-22T11:13:42Z</time>
      </trkpt>
      <trkpt lat="46.56581" lon="4.82213">
        <ele>359</ele>
        <time>2020-09-22T11:13:44Z</time>
      </trkpt>
      <trkpt lat="46.56587" lon="4.82186">
        <ele>362</ele>
        <time>2020-09-22T11:13:49Z</time>
      </trkpt>
      <trkpt lat="46.56584" lon="4.82089">
        <ele>372</ele>
        <time>2020-09-22T11:14:05Z</time>
      </trkpt>
      <trkpt lat="46.56576" lon="4.82028">
        <ele>374</ele>
        <time>2020-09-22T11:14:15Z</time>
      </trkpt>
      <trkpt lat="46.56578" lon="4.81968">
        <ele>378</ele>
        <time>2020-09-22T11:14:24Z</time>
      </trkpt>
      <trkpt lat="46.56544" lon="4.8177">
        <ele>392</ele>
        <time>2020-09-22T11:14:57Z</time>
      </trkpt>
      <trkpt lat="46.56544" lon="4.81741">
        <ele>396</ele>
        <time>2020-09-22T11:15:02Z</time>
      </trkpt>
      <trkpt lat="46.56548" lon="4.81723">
        <ele>398</ele>
        <time>2020-09-22T11:15:05Z</time>
      </trkpt>
      <trkpt lat="46.56558" lon="4.81701">
        <ele>400</ele>
        <time>2020-09-22T11:15:09Z</time>
      </trkpt>
      <trkpt lat="46.56576" lon="4.81671">
        <ele>403</ele>
        <time>2020-09-22T11:15:15Z</time>
      </trkpt>
      <trkpt lat="46.56593" lon="4.81612">
        <ele>408</ele>
        <time>2020-09-22T11:15:26Z</time>
      </trkpt>
      <trkpt lat="46.56599" lon="4.816">
        <ele>409</ele>
        <time>2020-09-22T11:15:28Z</time>
      </trkpt>
      <trkpt lat="46.56606" lon="4.81593">
        <ele>410</ele>
        <time>2020-09-22T11:15:30Z</time>
      </trkpt>
      <trkpt lat="46.56629" lon="4.81583">
        <ele>411</ele>
        <time>2020-09-22T11:15:36Z</time>
      </trkpt>
      <trkpt lat="46.56718" lon="4.81556">
        <ele>412</ele>
        <time>2020-09-22T11:15:57Z</time>
      </trkpt>
      <trkpt lat="46.56755" lon="4.81549">
        <ele>412</ele>
        <time>2020-09-22T11:16:05Z</time>
      </trkpt>
      <trkpt lat="46.56554" lon="4.8147">
        <ele>410</ele>
        <time>2020-09-22T11:16:54Z</time>
      </trkpt>
      <trkpt lat="46.56442" lon="4.81422">
        <ele>410</ele>
        <time>2020-09-22T11:17:21Z</time>
      </trkpt>
      <trkpt lat="46.56389" lon="4.81406">
        <ele>410</ele>
        <time>2020-09-22T11:17:34Z</time>
      </trkpt>
      <trkpt lat="46.56338" lon="4.81397">
        <ele>410</ele>
        <time>2020-09-22T11:17:46Z</time>
      </trkpt>
      <trkpt lat="46.56213" lon="4.81369">
        <ele>408</ele>
        <time>2020-09-22T11:18:16Z</time>
      </trkpt>
      <trkpt lat="46.5613" lon="4.81381">
        <ele>410</ele>
        <time>2020-09-22T11:18:35Z</time>
      </trkpt>
      <trkpt lat="46.56108" lon="4.81382">
        <ele>410</ele>
        <time>2020-09-22T11:18:40Z</time>
      </trkpt>
      <trkpt lat="46.56093" lon="4.81379">
        <ele>411</ele>
        <time>2020-09-22T11:18:44Z</time>
      </trkpt>
      <trkpt lat="46.55988" lon="4.81324">
        <ele>410</ele>
        <time>2020-09-22T11:19:10Z</time>
      </trkpt>
      <trkpt lat="46.55923" lon="4.81294">
        <ele>409</ele>
        <time>2020-09-22T11:19:26Z</time>
      </trkpt>
      <trkpt lat="46.55872" lon="4.81244">
        <ele>408</ele>
        <time>2020-09-22T11:19:40Z</time>
      </trkpt>
      <trkpt lat="46.55848" lon="4.81237">
        <ele>408</ele>
        <time>2020-09-22T11:19:46Z</time>
      </trkpt>
      <trkpt lat="46.55821" lon="4.81218">
        <ele>407</ele>
        <time>2020-09-22T11:19:53Z</time>
      </trkpt>
      <trkpt lat="46.55776" lon="4.8115">
        <ele>405</ele>
        <time>2020-09-22T11:20:08Z</time>
      </trkpt>
      <trkpt lat="46.55752" lon="4.81131">
        <ele>405</ele>
        <time>2020-09-22T11:20:14Z</time>
      </trkpt>
      <trkpt lat="46.55702" lon="4.81108">
        <ele>403</ele>
        <time>2020-09-22T11:20:27Z</time>
      </trkpt>
      <trkpt lat="46.55658" lon="4.81082">
        <ele>403</ele>
        <time>2020-09-22T11:20:38Z</time>
      </trkpt>
      <trkpt lat="46.55644" lon="4.81067">
        <ele>402</ele>
        <time>2020-09-22T11:20:42Z</time>
      </trkpt>
      <trkpt lat="46.55617" lon="4.81048">
        <ele>402</ele>
        <time>2020-09-22T11:20:49Z</time>
      </trkpt>
      <trkpt lat="46.5558" lon="4.81029">
        <ele>402</ele>
        <time>2020-09-22T11:20:58Z</time>
      </trkpt>
      <trkpt lat="46.55566" lon="4.81019">
        <ele>403</ele>
        <time>2020-09-22T11:21:02Z</time>
      </trkpt>
      <trkpt lat="46.55478" lon="4.8094">
        <ele>405</ele>
        <time>2020-09-22T11:21:26Z</time>
      </trkpt>
      <trkpt lat="46.55455" lon="4.80928">
        <ele>405</ele>
        <time>2020-09-22T11:21:31Z</time>
      </trkpt>
      <trkpt lat="46.55433" lon="4.80921">
        <ele>405</ele>
        <time>2020-09-22T11:21:37Z</time>
      </trkpt>
      <trkpt lat="46.55419" lon="4.8092">
        <ele>405</ele>
        <time>2020-09-22T11:21:40Z</time>
      </trkpt>
      <trkpt lat="46.55285" lon="4.80845">
        <ele>406</ele>
        <time>2020-09-22T11:22:13Z</time>
      </trkpt>
      <trkpt lat="46.55267" lon="4.80837">
        <ele>407</ele>
        <time>2020-09-22T11:22:18Z</time>
      </trkpt>
      <trkpt lat="46.55241" lon="4.80829">
        <ele>407</ele>
        <time>2020-09-22T11:22:24Z</time>
      </trkpt>
      <trkpt lat="46.55172" lon="4.80815">
        <ele>405</ele>
        <time>2020-09-22T11:22:40Z</time>
      </trkpt>
      <trkpt lat="46.55138" lon="4.80793">
        <ele>402</ele>
        <time>2020-09-22T11:22:49Z</time>
      </trkpt>
      <trkpt lat="46.54975" lon="4.80674">
        <ele>395</ele>
        <time>2020-09-22T11:23:32Z</time>
      </trkpt>
      <trkpt lat="46.5482" lon="4.80566">
        <ele>388</ele>
        <time>2020-09-22T11:24:12Z</time>
      </trkpt>
      <trkpt lat="46.54725" lon="4.80491">
        <ele>387</ele>
        <time>2020-09-22T11:24:37Z</time>
      </trkpt>
      <trkpt lat="46.54618" lon="4.80415">
        <ele>386</ele>
        <time>2020-09-22T11:25:05Z</time>
      </trkpt>
      <trkpt lat="46.54557" lon="4.80359">
        <ele>384</ele>
        <time>2020-09-22T11:25:22Z</time>
      </trkpt>
      <trkpt lat="46.54549" lon="4.80354">
        <ele>384</ele>
        <time>2020-09-22T11:25:24Z</time>
      </trkpt>
      <trkpt lat="46.54523" lon="4.80346">
        <ele>383</ele>
        <time>2020-09-22T11:25:30Z</time>
      </trkpt>
      <trkpt lat="46.54481" lon="4.80299">
        <ele>381</ele>
        <time>2020-09-22T11:25:42Z</time>
      </trkpt>
      <trkpt lat="46.54462" lon="4.80286">
        <ele>380</ele>
        <time>2020-09-22T11:25:47Z</time>
      </trkpt>
      <trkpt lat="46.54374" lon="4.80213">
        <ele>374</ele>
        <time>2020-09-22T11:26:11Z</time>
      </trkpt>
      <trkpt lat="46.54363" lon="4.80207">
        <ele>373</ele>
        <time>2020-09-22T11:26:14Z</time>
      </trkpt>
      <trkpt lat="46.54365" lon="4.8018">
        <ele>373</ele>
        <time>2020-09-22T11:26:18Z</time>
      </trkpt>
      <trkpt lat="46.54373" lon="4.80139">
        <ele>372</ele>
        <time>2020-09-22T11:26:25Z</time>
      </trkpt>
      <trkpt lat="46.54378" lon="4.80072">
        <ele>369</ele>
        <time>2020-09-22T11:26:36Z</time>
      </trkpt>
      <trkpt lat="46.54387" lon="4.80046">
        <ele>367</ele>
        <time>2020-09-22T11:26:40Z</time>
      </trkpt>
      <trkpt lat="46.54425" lon="4.79997">
        <ele>364</ele>
        <time>2020-09-22T11:26:52Z</time>
      </trkpt>
      <trkpt lat="46.54431" lon="4.79987">
        <ele>363</ele>
        <time>2020-09-22T11:26:54Z</time>
      </trkpt>
      <trkpt lat="46.5443" lon="4.7998">
        <ele>362</ele>
        <time>2020-09-22T11:26:55Z</time>
      </trkpt>
      <trkpt lat="46.54491" lon="4.79907">
        <ele>361</ele>
        <time>2020-09-22T11:27:14Z</time>
      </trkpt>
      <trkpt lat="46.54502" lon="4.79896">
        <ele>360</ele>
        <time>2020-09-22T11:27:17Z</time>
      </trkpt>
      <trkpt lat="46.54563" lon="4.79861">
        <ele>360</ele>
        <time>2020-09-22T11:27:32Z</time>
      </trkpt>
      <trkpt lat="46.54621" lon="4.79798">
        <ele>358</ele>
        <time>2020-09-22T11:27:49Z</time>
      </trkpt>
      <trkpt lat="46.54652" lon="4.79754">
        <ele>358</ele>
        <time>2020-09-22T11:27:59Z</time>
      </trkpt>
      <trkpt lat="46.54676" lon="4.7971">
        <ele>359</ele>
        <time>2020-09-22T11:28:08Z</time>
      </trkpt>
      <trkpt lat="46.54668" lon="4.79711">
        <ele>358</ele>
        <time>2020-09-22T11:28:10Z</time>
      </trkpt>
      <trkpt lat="46.54639" lon="4.79747">
        <ele>354</ele>
        <time>2020-09-22T11:28:19Z</time>
      </trkpt>
      <trkpt lat="46.54626" lon="4.79754">
        <ele>352</ele>
        <time>2020-09-22T11:28:22Z</time>
      </trkpt>
      <trkpt lat="46.54572" lon="4.79772">
        <ele>345</ele>
        <time>2020-09-22T11:28:35Z</time>
      </trkpt>
      <trkpt lat="46.54539" lon="4.79774">
        <ele>342</ele>
        <time>2020-09-22T11:28:43Z</time>
      </trkpt>
      <trkpt lat="46.54534" lon="4.79782">
        <ele>344</ele>
        <time>2020-09-22T11:28:45Z</time>
      </trkpt>
      <trkpt lat="46.54501" lon="4.798">
        <ele>344</ele>
        <time>2020-09-22T11:28:53Z</time>
      </trkpt>
      <trkpt lat="46.54482" lon="4.79806">
        <ele>345</ele>
        <time>2020-09-22T11:28:58Z</time>
      </trkpt>
      <trkpt lat="46.54448" lon="4.79809">
        <ele>344</ele>
        <time>2020-09-22T11:29:05Z</time>
      </trkpt>
      <trkpt lat="46.5442" lon="4.7982">
        <ele>343</ele>
        <time>2020-09-22T11:29:12Z</time>
      </trkpt>
      <trkpt lat="46.54398" lon="4.79841">
        <ele>344</ele>
        <time>2020-09-22T11:29:18Z</time>
      </trkpt>
      <trkpt lat="46.54381" lon="4.79879">
        <ele>348</ele>
        <time>2020-09-22T11:29:26Z</time>
      </trkpt>
      <trkpt lat="46.54363" lon="4.79896">
        <ele>349</ele>
        <time>2020-09-22T11:29:31Z</time>
      </trkpt>
      <trkpt lat="46.54292" lon="4.79937">
        <ele>351</ele>
        <time>2020-09-22T11:29:49Z</time>
      </trkpt>
      <trkpt lat="46.54274" lon="4.79945">
        <ele>352</ele>
        <time>2020-09-22T11:29:53Z</time>
      </trkpt>
      <trkpt lat="46.5426" lon="4.79945">
        <ele>352</ele>
        <time>2020-09-22T11:29:56Z</time>
      </trkpt>
      <trkpt lat="46.54246" lon="4.79936">
        <ele>352</ele>
        <time>2020-09-22T11:30:00Z</time>
      </trkpt>
      <trkpt lat="46.54239" lon="4.79942">
        <ele>352</ele>
        <time>2020-09-22T11:30:02Z</time>
      </trkpt>
      <trkpt lat="46.54224" lon="4.79956">
        <ele>353</ele>
        <time>2020-09-22T11:30:06Z</time>
      </trkpt>
      <trkpt lat="46.54138" lon="4.80058">
        <ele>354</ele>
        <time>2020-09-22T11:30:32Z</time>
      </trkpt>
      <trkpt lat="46.54109" lon="4.80087">
        <ele>353</ele>
        <time>2020-09-22T11:30:40Z</time>
      </trkpt>
      <trkpt lat="46.54093" lon="4.80093">
        <ele>352</ele>
        <time>2020-09-22T11:30:44Z</time>
      </trkpt>
      <trkpt lat="46.54085" lon="4.80093">
        <ele>352</ele>
        <time>2020-09-22T11:30:46Z</time>
      </trkpt>
      <trkpt lat="46.5407" lon="4.80088">
        <ele>350</ele>
        <time>2020-09-22T11:30:49Z</time>
      </trkpt>
      <trkpt lat="46.54058" lon="4.80081">
        <ele>349</ele>
        <time>2020-09-22T11:30:52Z</time>
      </trkpt>
      <trkpt lat="46.5406" lon="4.80155">
        <ele>346</ele>
        <time>2020-09-22T11:31:04Z</time>
      </trkpt>
      <trkpt lat="46.5407" lon="4.80191">
        <ele>346</ele>
        <time>2020-09-22T11:31:10Z</time>
      </trkpt>
      <trkpt lat="46.5407" lon="4.80209">
        <ele>345</ele>
        <time>2020-09-22T11:31:13Z</time>
      </trkpt>
      <trkpt lat="46.54065" lon="4.80222">
        <ele>344</ele>
        <time>2020-09-22T11:31:16Z</time>
      </trkpt>
      <trkpt lat="46.54059" lon="4.80229">
        <ele>343</ele>
        <time>2020-09-22T11:31:18Z</time>
      </trkpt>
      <trkpt lat="46.54029" lon="4.80251">
        <ele>340</ele>
        <time>2020-09-22T11:31:25Z</time>
      </trkpt>
      <trkpt lat="46.54024" lon="4.80251">
        <ele>340</ele>
        <time>2020-09-22T11:31:27Z</time>
      </trkpt>
      <trkpt lat="46.5392" lon="4.80208">
        <ele>337</ele>
        <time>2020-09-22T11:31:52Z</time>
      </trkpt>
      <trkpt lat="46.53891" lon="4.80202">
        <ele>337</ele>
        <time>2020-09-22T11:31:59Z</time>
      </trkpt>
      <trkpt lat="46.53866" lon="4.80202">
        <ele>337</ele>
        <time>2020-09-22T11:32:04Z</time>
      </trkpt>
      <trkpt lat="46.53754" lon="4.80237">
        <ele>342</ele>
        <time>2020-09-22T11:32:31Z</time>
      </trkpt>
      <trkpt lat="46.53734" lon="4.80246">
        <ele>342</ele>
        <time>2020-09-22T11:32:36Z</time>
      </trkpt>
      <trkpt lat="46.53671" lon="4.80264">
        <ele>340</ele>
        <time>2020-09-22T11:32:51Z</time>
      </trkpt>
      <trkpt lat="46.5366" lon="4.80272">
        <ele>340</ele>
        <time>2020-09-22T11:32:54Z</time>
      </trkpt>
      <trkpt lat="46.53646" lon="4.80283">
        <ele>339</ele>
        <time>2020-09-22T11:32:58Z</time>
      </trkpt>
      <trkpt lat="46.53622" lon="4.80309">
        <ele>339</ele>
        <time>2020-09-22T11:33:05Z</time>
      </trkpt>
      <trkpt lat="46.5359" lon="4.80367">
        <ele>337</ele>
        <time>2020-09-22T11:33:17Z</time>
      </trkpt>
      <trkpt lat="46.53528" lon="4.80448">
        <ele>327</ele>
        <time>2020-09-22T11:33:36Z</time>
      </trkpt>
      <trkpt lat="46.53508" lon="4.80487">
        <ele>323</ele>
        <time>2020-09-22T11:33:44Z</time>
      </trkpt>
      <trkpt lat="46.53492" lon="4.8053">
        <ele>321</ele>
        <time>2020-09-22T11:33:52Z</time>
      </trkpt>
      <trkpt lat="46.53441" lon="4.80628">
        <ele>313</ele>
        <time>2020-09-22T11:34:11Z</time>
      </trkpt>
      <trkpt lat="46.53501" lon="4.80651">
        <ele>320</ele>
        <time>2020-09-22T11:34:26Z</time>
      </trkpt>
      <trkpt lat="46.53568" lon="4.80724">
        <ele>324</ele>
        <time>2020-09-22T11:34:46Z</time>
      </trkpt>
      <trkpt lat="46.53623" lon="4.80826">
        <ele>324</ele>
        <time>2020-09-22T11:35:06Z</time>
      </trkpt>
      <trkpt lat="46.53649" lon="4.8084">
        <ele>327</ele>
        <time>2020-09-22T11:35:13Z</time>
      </trkpt>
      <trkpt lat="46.53766" lon="4.80883">
        <ele>343</ele>
        <time>2020-09-22T11:35:41Z</time>
      </trkpt>
      <trkpt lat="46.53801" lon="4.80888">
        <ele>348</ele>
        <time>2020-09-22T11:35:49Z</time>
      </trkpt>
      <trkpt lat="46.53828" lon="4.80897">
        <ele>352</ele>
        <time>2020-09-22T11:35:56Z</time>
      </trkpt>
      <trkpt lat="46.53921" lon="4.80907">
        <ele>367</ele>
        <time>2020-09-22T11:36:17Z</time>
      </trkpt>
      <trkpt lat="46.53971" lon="4.80934">
        <ele>371</ele>
        <time>2020-09-22T11:36:30Z</time>
      </trkpt>
      <trkpt lat="46.54078" lon="4.80938">
        <ele>385</ele>
        <time>2020-09-22T11:36:55Z</time>
      </trkpt>
      <trkpt lat="46.54233" lon="4.80995">
        <ele>391</ele>
        <time>2020-09-22T11:37:32Z</time>
      </trkpt>
      <trkpt lat="46.54308" lon="4.81014">
        <ele>394</ele>
        <time>2020-09-22T11:37:50Z</time>
      </trkpt>
      <trkpt lat="46.543" lon="4.8106">
        <ele>387</ele>
        <time>2020-09-22T11:37:58Z</time>
      </trkpt>
      <trkpt lat="46.54288" lon="4.81105">
        <ele>378</ele>
        <time>2020-09-22T11:38:05Z</time>
      </trkpt>
      <trkpt lat="46.54281" lon="4.8113">
        <ele>373</ele>
        <time>2020-09-22T11:38:10Z</time>
      </trkpt>
      <trkpt lat="46.54272" lon="4.81142">
        <ele>371</ele>
        <time>2020-09-22T11:38:13Z</time>
      </trkpt>
      <trkpt lat="46.54248" lon="4.81231">
        <ele>366</ele>
        <time>2020-09-22T11:38:28Z</time>
      </trkpt>
      <trkpt lat="46.54182" lon="4.81234">
        <ele>366</ele>
        <time>2020-09-22T11:38:43Z</time>
      </trkpt>
      <trkpt lat="46.54034" lon="4.81415">
        <ele>356</ele>
        <time>2020-09-22T11:39:29Z</time>
      </trkpt>
      <trkpt lat="46.54016" lon="4.81445">
        <ele>351</ele>
        <time>2020-09-22T11:39:35Z</time>
      </trkpt>
      <trkpt lat="46.54009" lon="4.81451">
        <ele>350</ele>
        <time>2020-09-22T11:39:37Z</time>
      </trkpt>
      <trkpt lat="46.54005" lon="4.81452">
        <ele>349</ele>
        <time>2020-09-22T11:39:38Z</time>
      </trkpt>
      <trkpt lat="46.53987" lon="4.81448">
        <ele>347</ele>
        <time>2020-09-22T11:39:42Z</time>
      </trkpt>
      <trkpt lat="46.53977" lon="4.81441">
        <ele>347</ele>
        <time>2020-09-22T11:39:45Z</time>
      </trkpt>
      <trkpt lat="46.53956" lon="4.81439">
        <ele>344</ele>
        <time>2020-09-22T11:39:50Z</time>
      </trkpt>
      <trkpt lat="46.53929" lon="4.81451">
        <ele>340</ele>
        <time>2020-09-22T11:39:56Z</time>
      </trkpt>
      <trkpt lat="46.53927" lon="4.81455">
        <ele>339</ele>
        <time>2020-09-22T11:39:57Z</time>
      </trkpt>
      <trkpt lat="46.53925" lon="4.8146">
        <ele>338</ele>
        <time>2020-09-22T11:39:58Z</time>
      </trkpt>
      <trkpt lat="46.53933" lon="4.81491">
        <ele>336</ele>
        <time>2020-09-22T11:40:03Z</time>
      </trkpt>
      <trkpt lat="46.53935" lon="4.8153">
        <ele>332</ele>
        <time>2020-09-22T11:40:09Z</time>
      </trkpt>
      <trkpt lat="46.53944" lon="4.81556">
        <ele>329</ele>
        <time>2020-09-22T11:40:14Z</time>
      </trkpt>
      <trkpt lat="46.53973" lon="4.81609">
        <ele>327</ele>
        <time>2020-09-22T11:40:25Z</time>
      </trkpt>
      <trkpt lat="46.53984" lon="4.81647">
        <ele>324</ele>
        <time>2020-09-22T11:40:32Z</time>
      </trkpt>
      <trkpt lat="46.5395" lon="4.81758">
        <ele>312</ele>
        <time>2020-09-22T11:40:51Z</time>
      </trkpt>
      <trkpt lat="46.53942" lon="4.81774">
        <ele>311</ele>
        <time>2020-09-22T11:40:54Z</time>
      </trkpt>
      <trkpt lat="46.53948" lon="4.81851">
        <ele>305</ele>
        <time>2020-09-22T11:41:07Z</time>
      </trkpt>
      <trkpt lat="46.53912" lon="4.81862">
        <ele>300</ele>
        <time>2020-09-22T11:41:15Z</time>
      </trkpt>
      <trkpt lat="46.53849" lon="4.81868">
        <ele>291</ele>
        <time>2020-09-22T11:41:30Z</time>
      </trkpt>
      <trkpt lat="46.53846" lon="4.81871">
        <ele>290</ele>
        <time>2020-09-22T11:41:31Z</time>
      </trkpt>
      <trkpt lat="46.53846" lon="4.81886">
        <ele>288</ele>
        <time>2020-09-22T11:41:33Z</time>
      </trkpt>
      <trkpt lat="46.53889" lon="4.81943">
        <ele>288</ele>
        <time>2020-09-22T11:41:47Z</time>
      </trkpt>
      <trkpt lat="46.53896" lon="4.8197">
        <ele>286</ele>
        <time>2020-09-22T11:41:52Z</time>
      </trkpt>
      <trkpt lat="46.53897" lon="4.81986">
        <ele>285</ele>
        <time>2020-09-22T11:41:54Z</time>
      </trkpt>
      <trkpt lat="46.53894" lon="4.82">
        <ele>284</ele>
        <time>2020-09-22T11:41:57Z</time>
      </trkpt>
      <trkpt lat="46.5389" lon="4.82014">
        <ele>284</ele>
        <time>2020-09-22T11:41:59Z</time>
      </trkpt>
      <trkpt lat="46.53878" lon="4.82034">
        <ele>285</ele>
        <time>2020-09-22T11:42:03Z</time>
      </trkpt>
      <trkpt lat="46.53815" lon="4.82117">
        <ele>287</ele>
        <time>2020-09-22T11:42:23Z</time>
      </trkpt>
      <trkpt lat="46.53785" lon="4.82149">
        <ele>289</ele>
        <time>2020-09-22T11:42:32Z</time>
      </trkpt>
      <trkpt lat="46.53748" lon="4.82148">
        <ele>287</ele>
        <time>2020-09-22T11:42:40Z</time>
      </trkpt>
      <trkpt lat="46.53706" lon="4.82162">
        <ele>283</ele>
        <time>2020-09-22T11:42:50Z</time>
      </trkpt>
      <trkpt lat="46.53646" lon="4.82152">
        <ele>274</ele>
        <time>2020-09-22T11:43:05Z</time>
      </trkpt>
      <trkpt lat="46.53635" lon="4.82151">
        <ele>273</ele>
        <time>2020-09-22T11:43:07Z</time>
      </trkpt>
      <trkpt lat="46.53627" lon="4.82153">
        <ele>272</ele>
        <time>2020-09-22T11:43:09Z</time>
      </trkpt>
      <trkpt lat="46.53591" lon="4.82175">
        <ele>268</ele>
        <time>2020-09-22T11:43:18Z</time>
      </trkpt>
      <trkpt lat="46.53539" lon="4.82189">
        <ele>266</ele>
        <time>2020-09-22T11:43:31Z</time>
      </trkpt>
      <trkpt lat="46.53515" lon="4.82209">
        <ele>265</ele>
        <time>2020-09-22T11:43:37Z</time>
      </trkpt>
      <trkpt lat="46.53451" lon="4.82255">
        <ele>264</ele>
        <time>2020-09-22T11:43:54Z</time>
      </trkpt>
      <trkpt lat="46.53435" lon="4.82265">
        <ele>264</ele>
        <time>2020-09-22T11:43:58Z</time>
      </trkpt>
      <trkpt lat="46.53427" lon="4.82265">
        <ele>264</ele>
        <time>2020-09-22T11:44:00Z</time>
      </trkpt>
      <trkpt lat="46.53412" lon="4.82243">
        <ele>263</ele>
        <time>2020-09-22T11:44:05Z</time>
      </trkpt>
      <trkpt lat="46.53404" lon="4.82236">
        <ele>263</ele>
        <time>2020-09-22T11:44:07Z</time>
      </trkpt>
      <trkpt lat="46.53382" lon="4.82229">
        <ele>261</ele>
        <time>2020-09-22T11:44:12Z</time>
      </trkpt>
      <trkpt lat="46.53323" lon="4.82218">
        <ele>258</ele>
        <time>2020-09-22T11:44:26Z</time>
      </trkpt>
      <trkpt lat="46.53304" lon="4.82212">
        <ele>258</ele>
        <time>2020-09-22T11:44:30Z</time>
      </trkpt>
      <trkpt lat="46.53282" lon="4.82188">
        <ele>258</ele>
        <time>2020-09-22T11:44:37Z</time>
      </trkpt>
      <trkpt lat="46.53273" lon="4.82191">
        <ele>258</ele>
        <time>2020-09-22T11:44:39Z</time>
      </trkpt>
      <trkpt lat="46.53268" lon="4.822">
        <ele>258</ele>
        <time>2020-09-22T11:44:41Z</time>
      </trkpt>
      <trkpt lat="46.53261" lon="4.822">
        <ele>258</ele>
        <time>2020-09-22T11:44:43Z</time>
      </trkpt>
      <trkpt lat="46.53229" lon="4.82219">
        <ele>258</ele>
        <time>2020-09-22T11:44:51Z</time>
      </trkpt>
      <trkpt lat="46.53219" lon="4.82222">
        <ele>258</ele>
        <time>2020-09-22T11:44:53Z</time>
      </trkpt>
      <trkpt lat="46.5321" lon="4.82221">
        <ele>258</ele>
        <time>2020-09-22T11:44:55Z</time>
      </trkpt>
      <trkpt lat="46.53208" lon="4.82211">
        <ele>259</ele>
        <time>2020-09-22T11:44:57Z</time>
      </trkpt>
      <trkpt lat="46.53209" lon="4.82175">
        <ele>261</ele>
        <time>2020-09-22T11:45:03Z</time>
      </trkpt>
      <trkpt lat="46.53164" lon="4.82119">
        <ele>264</ele>
        <time>2020-09-22T11:45:16Z</time>
      </trkpt>
      <trkpt lat="46.53146" lon="4.82103">
        <ele>263</ele>
        <time>2020-09-22T11:45:21Z</time>
      </trkpt>
      <trkpt lat="46.5313" lon="4.82107">
        <ele>263</ele>
        <time>2020-09-22T11:45:25Z</time>
      </trkpt>
      <trkpt lat="46.53123" lon="4.82106">
        <ele>263</ele>
        <time>2020-09-22T11:45:27Z</time>
      </trkpt>
      <trkpt lat="46.53103" lon="4.82095">
        <ele>263</ele>
        <time>2020-09-22T11:45:32Z</time>
      </trkpt>
      <trkpt lat="46.53084" lon="4.82091">
        <ele>263</ele>
        <time>2020-09-22T11:45:36Z</time>
      </trkpt>
      <trkpt lat="46.53078" lon="4.82099">
        <ele>263</ele>
        <time>2020-09-22T11:45:38Z</time>
      </trkpt>
      <trkpt lat="46.53077" lon="4.82113">
        <ele>262</ele>
        <time>2020-09-22T11:45:40Z</time>
      </trkpt>
      <trkpt lat="46.5308" lon="4.82128">
        <ele>261</ele>
        <time>2020-09-22T11:45:43Z</time>
      </trkpt>
      <trkpt lat="46.53087" lon="4.82142">
        <ele>260</ele>
        <time>2020-09-22T11:45:46Z</time>
      </trkpt>
      <trkpt lat="46.53081" lon="4.82162">
        <ele>259</ele>
        <time>2020-09-22T11:45:49Z</time>
      </trkpt>
      <trkpt lat="46.53066" lon="4.82185">
        <ele>260</ele>
        <time>2020-09-22T11:45:54Z</time>
      </trkpt>
      <trkpt lat="46.5303" lon="4.82209">
        <ele>266</ele>
        <time>2020-09-22T11:46:04Z</time>
      </trkpt>
      <trkpt lat="46.53018" lon="4.82225">
        <ele>270</ele>
        <time>2020-09-22T11:46:07Z</time>
      </trkpt>
      <trkpt lat="46.5303" lon="4.8223">
        <ele>269</ele>
        <time>2020-09-22T11:46:10Z</time>
      </trkpt>
      <trkpt lat="46.53036" lon="4.82238">
        <ele>268</ele>
        <time>2020-09-22T11:46:12Z</time>
      </trkpt>
      <trkpt lat="46.53055" lon="4.82285">
        <ele>273</ele>
        <time>2020-09-22T11:46:21Z</time>
      </trkpt>
      <trkpt lat="46.53068" lon="4.8231">
        <ele>274</ele>
        <time>2020-09-22T11:46:26Z</time>
      </trkpt>
      <trkpt lat="46.53084" lon="4.82332">
        <ele>274</ele>
        <time>2020-09-22T11:46:31Z</time>
      </trkpt>
      <trkpt lat="46.53194" lon="4.82448">
        <ele>266</ele>
        <time>2020-09-22T11:47:03Z</time>
      </trkpt>
      <trkpt lat="46.53244" lon="4.82538">
        <ele>262</ele>
        <time>2020-09-22T11:47:21Z</time>
      </trkpt>
      <trkpt lat="46.53256" lon="4.82575">
        <ele>262</ele>
        <time>2020-09-22T11:47:28Z</time>
      </trkpt>
      <trkpt lat="46.5326" lon="4.82615">
        <ele>263</ele>
        <time>2020-09-22T11:47:34Z</time>
      </trkpt>
      <trkpt lat="46.53239" lon="4.82697">
        <ele>268</ele>
        <time>2020-09-22T11:47:49Z</time>
      </trkpt>
      <trkpt lat="46.53237" lon="4.82787">
        <ele>267</ele>
        <time>2020-09-22T11:48:03Z</time>
      </trkpt>
      <trkpt lat="46.53241" lon="4.82871">
        <ele>262</ele>
        <time>2020-09-22T11:48:17Z</time>
      </trkpt>
      <trkpt lat="46.53238" lon="4.82895">
        <ele>261</ele>
        <time>2020-09-22T11:48:20Z</time>
      </trkpt>
      <trkpt lat="46.53211" lon="4.82951">
        <ele>261</ele>
        <time>2020-09-22T11:48:31Z</time>
      </trkpt>
      <trkpt lat="46.53197" lon="4.8297">
        <ele>261</ele>
        <time>2020-09-22T11:48:36Z</time>
      </trkpt>
      <trkpt lat="46.53134" lon="4.83082">
        <ele>257</ele>
        <time>2020-09-22T11:48:59Z</time>
      </trkpt>
      <trkpt lat="46.5312" lon="4.83116">
        <ele>259</ele>
        <time>2020-09-22T11:49:06Z</time>
      </trkpt>
      <trkpt lat="46.53118" lon="4.83133">
        <ele>259</ele>
        <time>2020-09-22T11:49:08Z</time>
      </trkpt>
      <trkpt lat="46.53121" lon="4.83164">
        <ele>260</ele>
        <time>2020-09-22T11:49:13Z</time>
      </trkpt>
      <trkpt lat="46.53127" lon="4.83182">
        <ele>262</ele>
        <time>2020-09-22T11:49:17Z</time>
      </trkpt>
      <trkpt lat="46.53187" lon="4.83243">
        <ele>261</ele>
        <time>2020-09-22T11:49:34Z</time>
      </trkpt>
      <trkpt lat="46.53239" lon="4.83315">
        <ele>265</ele>
        <time>2020-09-22T11:49:50Z</time>
      </trkpt>
      <trkpt lat="46.5323" lon="4.83311">
        <ele>265</ele>
        <time>2020-09-22T11:49:53Z</time>
      </trkpt>
      <trkpt lat="46.53213" lon="4.83296">
        <ele>265</ele>
        <time>2020-09-22T11:49:57Z</time>
      </trkpt>
      <trkpt lat="46.53205" lon="4.83292">
        <ele>265</ele>
        <time>2020-09-22T11:49:59Z</time>
      </trkpt>
      <trkpt lat="46.53191" lon="4.83291">
        <ele>267</ele>
        <time>2020-09-22T11:50:02Z</time>
      </trkpt>
      <trkpt lat="46.53172" lon="4.83305">
        <ele>271</ele>
        <time>2020-09-22T11:50:07Z</time>
      </trkpt>
      <trkpt lat="46.53093" lon="4.8332">
        <ele>279</ele>
        <time>2020-09-22T11:50:26Z</time>
      </trkpt>
      <trkpt lat="46.53043" lon="4.8334">
        <ele>284</ele>
        <time>2020-09-22T11:50:38Z</time>
      </trkpt>
      <trkpt lat="46.53026" lon="4.83351">
        <ele>285</ele>
        <time>2020-09-22T11:50:43Z</time>
      </trkpt>
      <trkpt lat="46.52938" lon="4.83421">
        <ele>291</ele>
        <time>2020-09-22T11:51:06Z</time>
      </trkpt>
      <trkpt lat="46.52865" lon="4.83463">
        <ele>290</ele>
        <time>2020-09-22T11:51:24Z</time>
      </trkpt>
      <trkpt lat="46.5283" lon="4.83491">
        <ele>287</ele>
        <time>2020-09-22T11:51:34Z</time>
      </trkpt>
      <trkpt lat="46.52768" lon="4.83508">
        <ele>282</ele>
        <time>2020-09-22T11:51:48Z</time>
      </trkpt>
      <trkpt lat="46.52723" lon="4.83557">
        <ele>278</ele>
        <time>2020-09-22T11:52:01Z</time>
      </trkpt>
      <trkpt lat="46.52707" lon="4.83565">
        <ele>278</ele>
        <time>2020-09-22T11:52:05Z</time>
      </trkpt>
      <trkpt lat="46.52691" lon="4.83568">
        <ele>278</ele>
        <time>2020-09-22T11:52:09Z</time>
      </trkpt>
      <trkpt lat="46.52649" lon="4.83569">
        <ele>279</ele>
        <time>2020-09-22T11:52:19Z</time>
      </trkpt>
      <trkpt lat="46.52591" lon="4.83576">
        <ele>281</ele>
        <time>2020-09-22T11:52:33Z</time>
      </trkpt>
      <trkpt lat="46.52552" lon="4.83601">
        <ele>282</ele>
        <time>2020-09-22T11:52:43Z</time>
      </trkpt>
      <trkpt lat="46.52546" lon="4.83603">
        <ele>282</ele>
        <time>2020-09-22T11:52:44Z</time>
      </trkpt>
      <trkpt lat="46.52524" lon="4.83603">
        <ele>283</ele>
        <time>2020-09-22T11:52:49Z</time>
      </trkpt>
      <trkpt lat="46.52515" lon="4.83606">
        <ele>284</ele>
        <time>2020-09-22T11:52:51Z</time>
      </trkpt>
      <trkpt lat="46.52511" lon="4.8361">
        <ele>284</ele>
        <time>2020-09-22T11:52:52Z</time>
      </trkpt>
      <trkpt lat="46.52475" lon="4.8369">
        <ele>285</ele>
        <time>2020-09-22T11:53:08Z</time>
      </trkpt>
      <trkpt lat="46.52468" lon="4.83678">
        <ele>285</ele>
        <time>2020-09-22T11:53:10Z</time>
      </trkpt>
      <trkpt lat="46.5242" lon="4.83645">
        <ele>289</ele>
        <time>2020-09-22T11:53:23Z</time>
      </trkpt>
      <trkpt lat="46.52418" lon="4.83639">
        <ele>289</ele>
        <time>2020-09-22T11:53:24Z</time>
      </trkpt>
      <trkpt lat="46.52448" lon="4.83532">
        <ele>291</ele>
        <time>2020-09-22T11:53:42Z</time>
      </trkpt>
      <trkpt lat="46.52469" lon="4.83428">
        <ele>299</ele>
        <time>2020-09-22T11:54:00Z</time>
      </trkpt>
      <trkpt lat="46.5247" lon="4.83398">
        <ele>302</ele>
        <time>2020-09-22T11:54:05Z</time>
      </trkpt>
      <trkpt lat="46.52463" lon="4.83342">
        <ele>308</ele>
        <time>2020-09-22T11:54:14Z</time>
      </trkpt>
      <trkpt lat="46.52435" lon="4.83329">
        <ele>312</ele>
        <time>2020-09-22T11:54:21Z</time>
      </trkpt>
      <trkpt lat="46.5241" lon="4.83295">
        <ele>317</ele>
        <time>2020-09-22T11:54:29Z</time>
      </trkpt>
      <trkpt lat="46.52378" lon="4.83265">
        <ele>323</ele>
        <time>2020-09-22T11:54:37Z</time>
      </trkpt>
      <trkpt lat="46.52321" lon="4.83219">
        <ele>330</ele>
        <time>2020-09-22T11:54:53Z</time>
      </trkpt>
      <trkpt lat="46.52245" lon="4.83164">
        <ele>339</ele>
        <time>2020-09-22T11:55:13Z</time>
      </trkpt>
      <trkpt lat="46.52175" lon="4.83097">
        <ele>348</ele>
        <time>2020-09-22T11:55:32Z</time>
      </trkpt>
      <trkpt lat="46.52069" lon="4.83017">
        <ele>362</ele>
        <time>2020-09-22T11:56:00Z</time>
      </trkpt>
      <trkpt lat="46.52022" lon="4.82967">
        <ele>370</ele>
        <time>2020-09-22T11:56:14Z</time>
      </trkpt>
      <trkpt lat="46.52001" lon="4.82953">
        <ele>373</ele>
        <time>2020-09-22T11:56:19Z</time>
      </trkpt>
      <trkpt lat="46.51979" lon="4.82942">
        <ele>375</ele>
        <time>2020-09-22T11:56:24Z</time>
      </trkpt>
      <trkpt lat="46.51962" lon="4.82938">
        <ele>376</ele>
        <time>2020-09-22T11:56:28Z</time>
      </trkpt>
      <trkpt lat="46.51945" lon="4.82929">
        <ele>378</ele>
        <time>2020-09-22T11:56:33Z</time>
      </trkpt>
      <trkpt lat="46.519" lon="4.82886">
        <ele>383</ele>
        <time>2020-09-22T11:56:45Z</time>
      </trkpt>
      <trkpt lat="46.51853" lon="4.82836">
        <ele>387</ele>
        <time>2020-09-22T11:56:59Z</time>
      </trkpt>
      <trkpt lat="46.51845" lon="4.82824">
        <ele>388</ele>
        <time>2020-09-22T11:57:02Z</time>
      </trkpt>
      <trkpt lat="46.51842" lon="4.82822">
        <ele>388</ele>
        <time>2020-09-22T11:57:02Z</time>
      </trkpt>
      <trkpt lat="46.51819" lon="4.82822">
        <ele>388</ele>
        <time>2020-09-22T11:57:08Z</time>
      </trkpt>
      <trkpt lat="46.51807" lon="4.82819">
        <ele>389</ele>
        <time>2020-09-22T11:57:11Z</time>
      </trkpt>
      <trkpt lat="46.51795" lon="4.82812">
        <ele>389</ele>
        <time>2020-09-22T11:57:14Z</time>
      </trkpt>
      <trkpt lat="46.51786" lon="4.828">
        <ele>389</ele>
        <time>2020-09-22T11:57:16Z</time>
      </trkpt>
      <trkpt lat="46.51782" lon="4.8279">
        <ele>390</ele>
        <time>2020-09-22T11:57:18Z</time>
      </trkpt>
      <trkpt lat="46.51763" lon="4.82706">
        <ele>392</ele>
        <time>2020-09-22T11:57:32Z</time>
      </trkpt>
      <trkpt lat="46.51757" lon="4.82696">
        <ele>392</ele>
        <time>2020-09-22T11:57:35Z</time>
      </trkpt>
      <trkpt lat="46.51693" lon="4.82665">
        <ele>392</ele>
        <time>2020-09-22T11:57:50Z</time>
      </trkpt>
      <trkpt lat="46.51652" lon="4.82651">
        <ele>391</ele>
        <time>2020-09-22T11:58:00Z</time>
      </trkpt>
      <trkpt lat="46.51605" lon="4.82645">
        <ele>390</ele>
        <time>2020-09-22T11:58:11Z</time>
      </trkpt>
      <trkpt lat="46.51601" lon="4.82655">
        <ele>390</ele>
        <time>2020-09-22T11:58:13Z</time>
      </trkpt>
      <trkpt lat="46.51568" lon="4.82695">
        <ele>390</ele>
        <time>2020-09-22T11:58:23Z</time>
      </trkpt>
      <trkpt lat="46.51563" lon="4.82704">
        <ele>390</ele>
        <time>2020-09-22T11:58:25Z</time>
      </trkpt>
      <trkpt lat="46.51545" lon="4.82766">
        <ele>386</ele>
        <time>2020-09-22T11:58:36Z</time>
      </trkpt>
      <trkpt lat="46.51541" lon="4.82773">
        <ele>385</ele>
        <time>2020-09-22T11:58:37Z</time>
      </trkpt>
      <trkpt lat="46.51534" lon="4.82781">
        <ele>384</ele>
        <time>2020-09-22T11:58:39Z</time>
      </trkpt>
      <trkpt lat="46.51521" lon="4.82788">
        <ele>383</ele>
        <time>2020-09-22T11:58:43Z</time>
      </trkpt>
      <trkpt lat="46.51489" lon="4.8279">
        <ele>380</ele>
        <time>2020-09-22T11:58:50Z</time>
      </trkpt>
      <trkpt lat="46.51478" lon="4.82795">
        <ele>378</ele>
        <time>2020-09-22T11:58:53Z</time>
      </trkpt>
      <trkpt lat="46.51455" lon="4.8279">
        <ele>376</ele>
        <time>2020-09-22T11:58:58Z</time>
      </trkpt>
      <trkpt lat="46.51429" lon="4.82778">
        <ele>375</ele>
        <time>2020-09-22T11:59:05Z</time>
      </trkpt>
      <trkpt lat="46.51326" lon="4.82722">
        <ele>373</ele>
        <time>2020-09-22T11:59:30Z</time>
      </trkpt>
      <trkpt lat="46.51318" lon="4.82722">
        <ele>372</ele>
        <time>2020-09-22T11:59:32Z</time>
      </trkpt>
      <trkpt lat="46.51299" lon="4.82741">
        <ele>366</ele>
        <time>2020-09-22T11:59:37Z</time>
      </trkpt>
      <trkpt lat="46.51282" lon="4.82751">
        <ele>363</ele>
        <time>2020-09-22T11:59:42Z</time>
      </trkpt>
      <trkpt lat="46.51269" lon="4.8275">
        <ele>361</ele>
        <time>2020-09-22T11:59:45Z</time>
      </trkpt>
      <trkpt lat="46.51227" lon="4.82728">
        <ele>361</ele>
        <time>2020-09-22T11:59:55Z</time>
      </trkpt>
      <trkpt lat="46.5121" lon="4.82733">
        <ele>359</ele>
        <time>2020-09-22T11:59:59Z</time>
      </trkpt>
      <trkpt lat="46.51193" lon="4.82743">
        <ele>355</ele>
        <time>2020-09-22T12:00:04Z</time>
      </trkpt>
      <trkpt lat="46.51172" lon="4.82757">
        <ele>351</ele>
        <time>2020-09-22T12:00:09Z</time>
      </trkpt>
      <trkpt lat="46.51142" lon="4.82782">
        <ele>344</ele>
        <time>2020-09-22T12:00:17Z</time>
      </trkpt>
      <trkpt lat="46.51133" lon="4.82795">
        <ele>341</ele>
        <time>2020-09-22T12:00:20Z</time>
      </trkpt>
      <trkpt lat="46.51116" lon="4.82841">
        <ele>333</ele>
        <time>2020-09-22T12:00:28Z</time>
      </trkpt>
      <trkpt lat="46.51108" lon="4.82836">
        <ele>333</ele>
        <time>2020-09-22T12:00:30Z</time>
      </trkpt>
      <trkpt lat="46.51093" lon="4.82832">
        <ele>332</ele>
        <time>2020-09-22T12:00:34Z</time>
      </trkpt>
      <trkpt lat="46.51024" lon="4.82837">
        <ele>325</ele>
        <time>2020-09-22T12:00:50Z</time>
      </trkpt>
      <trkpt lat="46.50977" lon="4.82836">
        <ele>321</ele>
        <time>2020-09-22T12:01:01Z</time>
      </trkpt>
      <trkpt lat="46.50945" lon="4.8284">
        <ele>319</ele>
        <time>2020-09-22T12:01:09Z</time>
      </trkpt>
      <trkpt lat="46.50907" lon="4.82838">
        <ele>318</ele>
        <time>2020-09-22T12:01:17Z</time>
      </trkpt>
      <trkpt lat="46.50898" lon="4.82835">
        <ele>318</ele>
        <time>2020-09-22T12:01:20Z</time>
      </trkpt>
      <trkpt lat="46.50892" lon="4.82837">
        <ele>317</ele>
        <time>2020-09-22T12:01:21Z</time>
      </trkpt>
      <trkpt lat="46.5085" lon="4.82829">
        <ele>317</ele>
        <time>2020-09-22T12:01:31Z</time>
      </trkpt>
      <trkpt lat="46.50808" lon="4.82831">
        <ele>316</ele>
        <time>2020-09-22T12:01:41Z</time>
      </trkpt>
      <trkpt lat="46.50725" lon="4.8285">
        <ele>308</ele>
        <time>2020-09-22T12:02:00Z</time>
      </trkpt>
      <trkpt lat="46.50685" lon="4.82873">
        <ele>299</ele>
        <time>2020-09-22T12:02:10Z</time>
      </trkpt>
      <trkpt lat="46.50669" lon="4.82878">
        <ele>297</ele>
        <time>2020-09-22T12:02:14Z</time>
      </trkpt>
      <trkpt lat="46.50649" lon="4.82881">
        <ele>293</ele>
        <time>2020-09-22T12:02:19Z</time>
      </trkpt>
      <trkpt lat="46.5059" lon="4.82879">
        <ele>286</ele>
        <time>2020-09-22T12:02:33Z</time>
      </trkpt>
      <trkpt lat="46.50506" lon="4.82885">
        <ele>275</ele>
        <time>2020-09-22T12:02:52Z</time>
      </trkpt>
      <trkpt lat="46.50476" lon="4.82915">
        <ele>265</ele>
        <time>2020-09-22T12:03:01Z</time>
      </trkpt>
      <trkpt lat="46.50473" lon="4.83009">
        <ele>262</ele>
        <time>2020-09-22T12:03:16Z</time>
      </trkpt>
      <trkpt lat="46.50483" lon="4.8301">
        <ele>262</ele>
        <time>2020-09-22T12:03:18Z</time>
      </trkpt>
      <trkpt lat="46.50492" lon="4.83056">
        <ele>264</ele>
        <time>2020-09-22T12:03:26Z</time>
      </trkpt>
      <trkpt lat="46.50492" lon="4.8323">
        <ele>276</ele>
        <time>2020-09-22T12:03:54Z</time>
      </trkpt>
      <trkpt lat="46.50496" lon="4.83288">
        <ele>282</ele>
        <time>2020-09-22T12:04:03Z</time>
      </trkpt>
      <trkpt lat="46.50502" lon="4.8333">
        <ele>288</ele>
        <time>2020-09-22T12:04:10Z</time>
      </trkpt>
      <trkpt lat="46.50501" lon="4.8345">
        <ele>295</ele>
        <time>2020-09-22T12:04:30Z</time>
      </trkpt>
      <trkpt lat="46.50494" lon="4.83505">
        <ele>299</ele>
        <time>2020-09-22T12:04:39Z</time>
      </trkpt>
      <trkpt lat="46.50498" lon="4.83524">
        <ele>300</ele>
        <time>2020-09-22T12:04:42Z</time>
      </trkpt>
      <trkpt lat="46.50519" lon="4.8353">
        <ele>301</ele>
        <time>2020-09-22T12:04:47Z</time>
      </trkpt>
      <trkpt lat="46.5054" lon="4.83532">
        <ele>302</ele>
        <time>2020-09-22T12:04:52Z</time>
      </trkpt>
      <trkpt lat="46.50592" lon="4.8355">
        <ele>306</ele>
        <time>2020-09-22T12:05:04Z</time>
      </trkpt>
      <trkpt lat="46.50642" lon="4.83559">
        <ele>310</ele>
        <time>2020-09-22T12:05:16Z</time>
      </trkpt>
      <trkpt lat="46.50678" lon="4.83572">
        <ele>314</ele>
        <time>2020-09-22T12:05:25Z</time>
      </trkpt>
      <trkpt lat="46.50695" lon="4.83583">
        <ele>315</ele>
        <time>2020-09-22T12:05:29Z</time>
      </trkpt>
      <trkpt lat="46.50718" lon="4.83603">
        <ele>317</ele>
        <time>2020-09-22T12:05:35Z</time>
      </trkpt>
      <trkpt lat="46.50822" lon="4.83652">
        <ele>323</ele>
        <time>2020-09-22T12:06:01Z</time>
      </trkpt>
      <trkpt lat="46.5084" lon="4.83642">
        <ele>324</ele>
        <time>2020-09-22T12:06:05Z</time>
      </trkpt>
      <trkpt lat="46.50849" lon="4.83627">
        <ele>324</ele>
        <time>2020-09-22T12:06:08Z</time>
      </trkpt>
      <trkpt lat="46.50858" lon="4.83535">
        <ele>324</ele>
        <time>2020-09-22T12:06:23Z</time>
      </trkpt>
      <trkpt lat="46.50861" lon="4.83525">
        <ele>325</ele>
        <time>2020-09-22T12:06:25Z</time>
      </trkpt>
      <trkpt lat="46.5087" lon="4.83516">
        <ele>326</ele>
        <time>2020-09-22T12:06:28Z</time>
      </trkpt>
      <trkpt lat="46.50884" lon="4.83508">
        <ele>327</ele>
        <time>2020-09-22T12:06:31Z</time>
      </trkpt>
      <trkpt lat="46.50913" lon="4.83477">
        <ele>329</ele>
        <time>2020-09-22T12:06:40Z</time>
      </trkpt>
      <trkpt lat="46.50946" lon="4.8346">
        <ele>329</ele>
        <time>2020-09-22T12:06:48Z</time>
      </trkpt>
      <trkpt lat="46.50962" lon="4.83459">
        <ele>329</ele>
        <time>2020-09-22T12:06:51Z</time>
      </trkpt>
      <trkpt lat="46.50992" lon="4.83463">
        <ele>330</ele>
        <time>2020-09-22T12:06:59Z</time>
      </trkpt>
      <trkpt lat="46.51046" lon="4.83477">
        <ele>333</ele>
        <time>2020-09-22T12:07:11Z</time>
      </trkpt>
      <trkpt lat="46.5107" lon="4.83477">
        <ele>333</ele>
        <time>2020-09-22T12:07:17Z</time>
      </trkpt>
      <trkpt lat="46.511" lon="4.83487">
        <ele>335</ele>
        <time>2020-09-22T12:07:24Z</time>
      </trkpt>
      <trkpt lat="46.5115" lon="4.83509">
        <ele>337</ele>
        <time>2020-09-22T12:07:36Z</time>
      </trkpt>
      <trkpt lat="46.51198" lon="4.83514">
        <ele>338</ele>
        <time>2020-09-22T12:07:48Z</time>
      </trkpt>
      <trkpt lat="46.51244" lon="4.83511">
        <ele>338</ele>
        <time>2020-09-22T12:07:58Z</time>
      </trkpt>
      <trkpt lat="46.5127" lon="4.83513">
        <ele>338</ele>
        <time>2020-09-22T12:08:04Z</time>
      </trkpt>
      <trkpt lat="46.51295" lon="4.83522">
        <ele>338</ele>
        <time>2020-09-22T12:08:10Z</time>
      </trkpt>
      <trkpt lat="46.51359" lon="4.83539">
        <ele>338</ele>
        <time>2020-09-22T12:08:26Z</time>
      </trkpt>
      <trkpt lat="46.5145" lon="4.83548">
        <ele>336</ele>
        <time>2020-09-22T12:08:47Z</time>
      </trkpt>
      <trkpt lat="46.51472" lon="4.83554">
        <ele>335</ele>
        <time>2020-09-22T12:08:52Z</time>
      </trkpt>
      <trkpt lat="46.51482" lon="4.83553">
        <ele>335</ele>
        <time>2020-09-22T12:08:54Z</time>
      </trkpt>
      <trkpt lat="46.51499" lon="4.83568">
        <ele>334</ele>
        <time>2020-09-22T12:08:59Z</time>
      </trkpt>
      <trkpt lat="46.51515" lon="4.83577">
        <ele>333</ele>
        <time>2020-09-22T12:09:03Z</time>
      </trkpt>
      <trkpt lat="46.51559" lon="4.83581">
        <ele>330</ele>
        <time>2020-09-22T12:09:13Z</time>
      </trkpt>
      <trkpt lat="46.5157" lon="4.83583">
        <ele>329</ele>
        <time>2020-09-22T12:09:16Z</time>
      </trkpt>
      <trkpt lat="46.51579" lon="4.83588">
        <ele>328</ele>
        <time>2020-09-22T12:09:18Z</time>
      </trkpt>
      <trkpt lat="46.51595" lon="4.83601">
        <ele>327</ele>
        <time>2020-09-22T12:09:23Z</time>
      </trkpt>
      <trkpt lat="46.51646" lon="4.83686">
        <ele>326</ele>
        <time>2020-09-22T12:09:41Z</time>
      </trkpt>
      <trkpt lat="46.51653" lon="4.83705">
        <ele>326</ele>
        <time>2020-09-22T12:09:44Z</time>
      </trkpt>
      <trkpt lat="46.51689" lon="4.83752">
        <ele>326</ele>
        <time>2020-09-22T12:09:55Z</time>
      </trkpt>
      <trkpt lat="46.51707" lon="4.83766">
        <ele>326</ele>
        <time>2020-09-22T12:10:00Z</time>
      </trkpt>
      <trkpt lat="46.51745" lon="4.83786">
        <ele>325</ele>
        <time>2020-09-22T12:10:10Z</time>
      </trkpt>
      <trkpt lat="46.51768" lon="4.83803">
        <ele>325</ele>
        <time>2020-09-22T12:10:16Z</time>
      </trkpt>
      <trkpt lat="46.51824" lon="4.8383">
        <ele>323</ele>
        <time>2020-09-22T12:10:29Z</time>
      </trkpt>
      <trkpt lat="46.51888" lon="4.83869">
        <ele>320</ele>
        <time>2020-09-22T12:10:46Z</time>
      </trkpt>
      <trkpt lat="46.51968" lon="4.8391">
        <ele>316</ele>
        <time>2020-09-22T12:11:05Z</time>
      </trkpt>
      <trkpt lat="46.51998" lon="4.83929">
        <ele>316</ele>
        <time>2020-09-22T12:11:13Z</time>
      </trkpt>
      <trkpt lat="46.52067" lon="4.83966">
        <ele>311</ele>
        <time>2020-09-22T12:11:30Z</time>
      </trkpt>
      <trkpt lat="46.52135" lon="4.84012">
        <ele>307</ele>
        <time>2020-09-22T12:11:48Z</time>
      </trkpt>
      <trkpt lat="46.52179" lon="4.84049">
        <ele>305</ele>
        <time>2020-09-22T12:12:00Z</time>
      </trkpt>
      <trkpt lat="46.52213" lon="4.84082">
        <ele>304</ele>
        <time>2020-09-22T12:12:09Z</time>
      </trkpt>
      <trkpt lat="46.5223" lon="4.84092">
        <ele>303</ele>
        <time>2020-09-22T12:12:13Z</time>
      </trkpt>
      <trkpt lat="46.52261" lon="4.84118">
        <ele>300</ele>
        <time>2020-09-22T12:12:22Z</time>
      </trkpt>
      <trkpt lat="46.52306" lon="4.84149">
        <ele>297</ele>
        <time>2020-09-22T12:12:33Z</time>
      </trkpt>
      <trkpt lat="46.5233" lon="4.84171">
        <ele>296</ele>
        <time>2020-09-22T12:12:40Z</time>
      </trkpt>
      <trkpt lat="46.52355" lon="4.84187">
        <ele>295</ele>
        <time>2020-09-22T12:12:46Z</time>
      </trkpt>
      <trkpt lat="46.52381" lon="4.84214">
        <ele>294</ele>
        <time>2020-09-22T12:12:54Z</time>
      </trkpt>
      <trkpt lat="46.52391" lon="4.84221">
        <ele>294</ele>
        <time>2020-09-22T12:12:57Z</time>
      </trkpt>
      <trkpt lat="46.52414" lon="4.84232">
        <ele>294</ele>
        <time>2020-09-22T12:13:02Z</time>
      </trkpt>
      <trkpt lat="46.52539" lon="4.84309">
        <ele>291</ele>
        <time>2020-09-22T12:13:34Z</time>
      </trkpt>
      <trkpt lat="46.52612" lon="4.84345">
        <ele>289</ele>
        <time>2020-09-22T12:13:52Z</time>
      </trkpt>
      <trkpt lat="46.52622" lon="4.84352">
        <ele>289</ele>
        <time>2020-09-22T12:13:54Z</time>
      </trkpt>
      <trkpt lat="46.52637" lon="4.84371">
        <ele>289</ele>
        <time>2020-09-22T12:13:59Z</time>
      </trkpt>
      <trkpt lat="46.52655" lon="4.84402">
        <ele>290</ele>
        <time>2020-09-22T12:14:06Z</time>
      </trkpt>
      <trkpt lat="46.52667" lon="4.84414">
        <ele>291</ele>
        <time>2020-09-22T12:14:09Z</time>
      </trkpt>
      <trkpt lat="46.52684" lon="4.84426">
        <ele>290</ele>
        <time>2020-09-22T12:14:13Z</time>
      </trkpt>
      <trkpt lat="46.52694" lon="4.84418">
        <ele>290</ele>
        <time>2020-09-22T12:14:16Z</time>
      </trkpt>
      <trkpt lat="46.52701" lon="4.84437">
        <ele>290</ele>
        <time>2020-09-22T12:14:20Z</time>
      </trkpt>
      <trkpt lat="46.52754" lon="4.84542">
        <ele>292</ele>
        <time>2020-09-22T12:14:41Z</time>
      </trkpt>
      <trkpt lat="46.52761" lon="4.84552">
        <ele>292</ele>
        <time>2020-09-22T12:14:43Z</time>
      </trkpt>
      <trkpt lat="46.52768" lon="4.84557">
        <ele>292</ele>
        <time>2020-09-22T12:14:45Z</time>
      </trkpt>
      <trkpt lat="46.52811" lon="4.84573">
        <ele>294</ele>
        <time>2020-09-22T12:14:55Z</time>
      </trkpt>
      <trkpt lat="46.52901" lon="4.846">
        <ele>298</ele>
        <time>2020-09-22T12:15:16Z</time>
      </trkpt>
      <trkpt lat="46.52913" lon="4.84606">
        <ele>298</ele>
        <time>2020-09-22T12:15:19Z</time>
      </trkpt>
      <trkpt lat="46.52936" lon="4.8461">
        <ele>298</ele>
        <time>2020-09-22T12:15:25Z</time>
      </trkpt>
      <trkpt lat="46.52952" lon="4.84616">
        <ele>298</ele>
        <time>2020-09-22T12:15:29Z</time>
      </trkpt>
      <trkpt lat="46.53024" lon="4.84658">
        <ele>299</ele>
        <time>2020-09-22T12:15:47Z</time>
      </trkpt>
      <trkpt lat="46.53204" lon="4.84739">
        <ele>298</ele>
        <time>2020-09-22T12:16:31Z</time>
      </trkpt>
      <trkpt lat="46.53278" lon="4.84782">
        <ele>297</ele>
        <time>2020-09-22T12:16:49Z</time>
      </trkpt>
      <trkpt lat="46.5333" lon="4.84807">
        <ele>297</ele>
        <time>2020-09-22T12:17:02Z</time>
      </trkpt>
      <trkpt lat="46.53356" lon="4.84825">
        <ele>297</ele>
        <time>2020-09-22T12:17:09Z</time>
      </trkpt>
      <trkpt lat="46.53377" lon="4.84866">
        <ele>298</ele>
        <time>2020-09-22T12:17:17Z</time>
      </trkpt>
      <trkpt lat="46.53393" lon="4.84936">
        <ele>300</ele>
        <time>2020-09-22T12:17:29Z</time>
      </trkpt>
      <trkpt lat="46.53439" lon="4.85094">
        <ele>299</ele>
        <time>2020-09-22T12:17:57Z</time>
      </trkpt>
      <trkpt lat="46.53466" lon="4.85146">
        <ele>294</ele>
        <time>2020-09-22T12:18:07Z</time>
      </trkpt>
      <trkpt lat="46.53508" lon="4.85192">
        <ele>292</ele>
        <time>2020-09-22T12:18:19Z</time>
      </trkpt>
      <trkpt lat="46.53523" lon="4.85213">
        <ele>292</ele>
        <time>2020-09-22T12:18:24Z</time>
      </trkpt>
      <trkpt lat="46.53537" lon="4.85244">
        <ele>291</ele>
        <time>2020-09-22T12:18:30Z</time>
      </trkpt>
      <trkpt lat="46.53542" lon="4.8528">
        <ele>289</ele>
        <time>2020-09-22T12:18:36Z</time>
      </trkpt>
      <trkpt lat="46.53542" lon="4.85326">
        <ele>287</ele>
        <time>2020-09-22T12:18:43Z</time>
      </trkpt>
      <trkpt lat="46.53545" lon="4.85348">
        <ele>286</ele>
        <time>2020-09-22T12:18:47Z</time>
      </trkpt>
      <trkpt lat="46.53569" lon="4.85413">
        <ele>284</ele>
        <time>2020-09-22T12:18:59Z</time>
      </trkpt>
      <trkpt lat="46.53577" lon="4.85441">
        <ele>285</ele>
        <time>2020-09-22T12:19:04Z</time>
      </trkpt>
      <trkpt lat="46.53602" lon="4.856">
        <ele>296</ele>
        <time>2020-09-22T12:19:30Z</time>
      </trkpt>
      <trkpt lat="46.53606" lon="4.85609">
        <ele>296</ele>
        <time>2020-09-22T12:19:32Z</time>
      </trkpt>
      <trkpt lat="46.53643" lon="4.85662">
        <ele>298</ele>
        <time>2020-09-22T12:19:44Z</time>
      </trkpt>
      <trkpt lat="46.53679" lon="4.85704">
        <ele>298</ele>
        <time>2020-09-22T12:19:55Z</time>
      </trkpt>
      <trkpt lat="46.53735" lon="4.8574">
        <ele>298</ele>
        <time>2020-09-22T12:20:09Z</time>
      </trkpt>
      <trkpt lat="46.53839" lon="4.85778">
        <ele>298</ele>
        <time>2020-09-22T12:20:34Z</time>
      </trkpt>
      <trkpt lat="46.53862" lon="4.85783">
        <ele>297</ele>
        <time>2020-09-22T12:20:39Z</time>
      </trkpt>
      <trkpt lat="46.53899" lon="4.85786">
        <ele>294</ele>
        <time>2020-09-22T12:20:48Z</time>
      </trkpt>
      <trkpt lat="46.53935" lon="4.85792">
        <ele>292</ele>
        <time>2020-09-22T12:20:56Z</time>
      </trkpt>
      <trkpt lat="46.54063" lon="4.858">
        <ele>282</ele>
        <time>2020-09-22T12:21:26Z</time>
      </trkpt>
      <trkpt lat="46.54107" lon="4.85794">
        <ele>277</ele>
        <time>2020-09-22T12:21:37Z</time>
      </trkpt>
      <trkpt lat="46.54138" lon="4.85799">
        <ele>275</ele>
        <time>2020-09-22T12:21:44Z</time>
      </trkpt>
      <trkpt lat="46.54177" lon="4.85797">
        <ele>272</ele>
        <time>2020-09-22T12:21:53Z</time>
      </trkpt>
      <trkpt lat="46.54196" lon="4.85791">
        <ele>270</ele>
        <time>2020-09-22T12:21:58Z</time>
      </trkpt>
      <trkpt lat="46.54213" lon="4.85776">
        <ele>268</ele>
        <time>2020-09-22T12:22:02Z</time>
      </trkpt>
      <trkpt lat="46.54223" lon="4.85759">
        <ele>266</ele>
        <time>2020-09-22T12:22:06Z</time>
      </trkpt>
      <trkpt lat="46.54245" lon="4.85821">
        <ele>272</ele>
        <time>2020-09-22T12:22:17Z</time>
      </trkpt>
      <trkpt lat="46.54242" lon="4.85984">
        <ele>290</ele>
        <time>2020-09-22T12:22:43Z</time>
      </trkpt>
      <trkpt lat="46.54226" lon="4.86094">
        <ele>300</ele>
        <time>2020-09-22T12:23:01Z</time>
      </trkpt>
      <trkpt lat="46.54148" lon="4.86229">
        <ele>316</ele>
        <time>2020-09-22T12:23:30Z</time>
      </trkpt>
      <trkpt lat="46.5407" lon="4.86436">
        <ele>335</ele>
        <time>2020-09-22T12:24:08Z</time>
      </trkpt>
      <trkpt lat="46.53931" lon="4.86768">
        <ele>344</ele>
        <time>2020-09-22T12:25:10Z</time>
      </trkpt>
      <trkpt lat="46.53924" lon="4.86792">
        <ele>344</ele>
        <time>2020-09-22T12:25:14Z</time>
      </trkpt>
      <trkpt lat="46.53918" lon="4.86841">
        <ele>343</ele>
        <time>2020-09-22T12:25:22Z</time>
      </trkpt>
      <trkpt lat="46.53888" lon="4.86859">
        <ele>341</ele>
        <time>2020-09-22T12:25:30Z</time>
      </trkpt>
      <trkpt lat="46.5386" lon="4.86866">
        <ele>340</ele>
        <time>2020-09-22T12:25:36Z</time>
      </trkpt>
      <trkpt lat="46.53803" lon="4.86917">
        <ele>328</ele>
        <time>2020-09-22T12:25:52Z</time>
      </trkpt>
      <trkpt lat="46.53793" lon="4.86921">
        <ele>326</ele>
        <time>2020-09-22T12:25:54Z</time>
      </trkpt>
      <trkpt lat="46.53783" lon="4.86923">
        <ele>325</ele>
        <time>2020-09-22T12:25:57Z</time>
      </trkpt>
      <trkpt lat="46.53743" lon="4.86921">
        <ele>322</ele>
        <time>2020-09-22T12:26:06Z</time>
      </trkpt>
      <trkpt lat="46.53722" lon="4.86915">
        <ele>321</ele>
        <time>2020-09-22T12:26:11Z</time>
      </trkpt>
      <trkpt lat="46.53696" lon="4.86902">
        <ele>321</ele>
        <time>2020-09-22T12:26:18Z</time>
      </trkpt>
      <trkpt lat="46.53591" lon="4.86899">
        <ele>313</ele>
        <time>2020-09-22T12:26:42Z</time>
      </trkpt>
      <trkpt lat="46.53464" lon="4.86923">
        <ele>305</ele>
        <time>2020-09-22T12:27:12Z</time>
      </trkpt>
      <trkpt lat="46.53411" lon="4.86947">
        <ele>297</ele>
        <time>2020-09-22T12:27:25Z</time>
      </trkpt>
      <trkpt lat="46.53315" lon="4.86958">
        <ele>290</ele>
        <time>2020-09-22T12:27:47Z</time>
      </trkpt>
      <trkpt lat="46.53279" lon="4.86967">
        <ele>287</ele>
        <time>2020-09-22T12:27:56Z</time>
      </trkpt>
      <trkpt lat="46.53265" lon="4.86974">
        <ele>285</ele>
        <time>2020-09-22T12:27:59Z</time>
      </trkpt>
      <trkpt lat="46.53247" lon="4.86989">
        <ele>282</ele>
        <time>2020-09-22T12:28:04Z</time>
      </trkpt>
      <trkpt lat="46.5323" lon="4.87011">
        <ele>279</ele>
        <time>2020-09-22T12:28:10Z</time>
      </trkpt>
      <trkpt lat="46.53224" lon="4.87032">
        <ele>277</ele>
        <time>2020-09-22T12:28:13Z</time>
      </trkpt>
      <trkpt lat="46.53234" lon="4.87047">
        <ele>276</ele>
        <time>2020-09-22T12:28:17Z</time>
      </trkpt>
      <trkpt lat="46.53236" lon="4.87064">
        <ele>275</ele>
        <time>2020-09-22T12:28:19Z</time>
      </trkpt>
      <trkpt lat="46.53231" lon="4.87173">
        <ele>270</ele>
        <time>2020-09-22T12:28:37Z</time>
      </trkpt>
      <trkpt lat="46.53162" lon="4.87159">
        <ele>269</ele>
        <time>2020-09-22T12:28:53Z</time>
      </trkpt>
      <trkpt lat="46.53156" lon="4.8716">
        <ele>269</ele>
        <time>2020-09-22T12:28:55Z</time>
      </trkpt>
      <trkpt lat="46.53132" lon="4.87178">
        <ele>270</ele>
        <time>2020-09-22T12:29:01Z</time>
      </trkpt>
      <trkpt lat="46.53123" lon="4.87181">
        <ele>270</ele>
        <time>2020-09-22T12:29:03Z</time>
      </trkpt>
      <trkpt lat="46.53128" lon="4.87304">
        <ele>270</ele>
        <time>2020-09-22T12:29:23Z</time>
      </trkpt>
      <trkpt lat="46.53124" lon="4.87319">
        <ele>270</ele>
        <time>2020-09-22T12:29:25Z</time>
      </trkpt>
      <trkpt lat="46.53086" lon="4.87375">
        <ele>267</ele>
        <time>2020-09-22T12:29:38Z</time>
      </trkpt>
      <trkpt lat="46.53075" lon="4.87384">
        <ele>267</ele>
        <time>2020-09-22T12:29:41Z</time>
      </trkpt>
      <trkpt lat="46.53062" lon="4.8739">
        <ele>266</ele>
        <time>2020-09-22T12:29:44Z</time>
      </trkpt>
      <trkpt lat="46.53033" lon="4.87391">
        <ele>264</ele>
        <time>2020-09-22T12:29:51Z</time>
      </trkpt>
      <trkpt lat="46.52993" lon="4.87408">
        <ele>261</ele>
        <time>2020-09-22T12:30:01Z</time>
      </trkpt>
      <trkpt lat="46.5293" lon="4.8742">
        <ele>258</ele>
        <time>2020-09-22T12:30:16Z</time>
      </trkpt>
      <trkpt lat="46.52908" lon="4.87428">
        <ele>257</ele>
        <time>2020-09-22T12:30:21Z</time>
      </trkpt>
      <trkpt lat="46.52893" lon="4.87438">
        <ele>256</ele>
        <time>2020-09-22T12:30:25Z</time>
      </trkpt>
      <trkpt lat="46.52874" lon="4.87459">
        <ele>255</ele>
        <time>2020-09-22T12:30:30Z</time>
      </trkpt>
      <trkpt lat="46.52867" lon="4.87463">
        <ele>255</ele>
        <time>2020-09-22T12:30:32Z</time>
      </trkpt>
      <trkpt lat="46.52848" lon="4.8746">
        <ele>254</ele>
        <time>2020-09-22T12:30:37Z</time>
      </trkpt>
      <trkpt lat="46.52797" lon="4.87432">
        <ele>251</ele>
        <time>2020-09-22T12:30:49Z</time>
      </trkpt>
      <trkpt lat="46.52763" lon="4.87417">
        <ele>249</ele>
        <time>2020-09-22T12:30:58Z</time>
      </trkpt>
      <trkpt lat="46.52741" lon="4.87436">
        <ele>249</ele>
        <time>2020-09-22T12:31:04Z</time>
      </trkpt>
      <trkpt lat="46.52716" lon="4.87524">
        <ele>248</ele>
        <time>2020-09-22T12:31:19Z</time>
      </trkpt>
      <trkpt lat="46.52694" lon="4.87637">
        <ele>249</ele>
        <time>2020-09-22T12:31:38Z</time>
      </trkpt>
      <trkpt lat="46.52666" lon="4.87804">
        <ele>247</ele>
        <time>2020-09-22T12:32:05Z</time>
      </trkpt>
      <trkpt lat="46.52658" lon="4.87829">
        <ele>247</ele>
        <time>2020-09-22T12:32:10Z</time>
      </trkpt>
      <trkpt lat="46.52647" lon="4.87853">
        <ele>247</ele>
        <time>2020-09-22T12:32:14Z</time>
      </trkpt>
      <trkpt lat="46.52587" lon="4.87808">
        <ele>247</ele>
        <time>2020-09-22T12:32:30Z</time>
      </trkpt>
      <trkpt lat="46.52512" lon="4.87778">
        <ele>262</ele>
        <time>2020-09-22T12:32:48Z</time>
      </trkpt>
      <trkpt lat="46.52465" lon="4.87766">
        <ele>273</ele>
        <time>2020-09-22T12:32:59Z</time>
      </trkpt>
      <trkpt lat="46.52455" lon="4.87773">
        <ele>274</ele>
        <time>2020-09-22T12:33:02Z</time>
      </trkpt>
      <trkpt lat="46.52448" lon="4.878">
        <ele>273</ele>
        <time>2020-09-22T12:33:07Z</time>
      </trkpt>
      <trkpt lat="46.5243" lon="4.87944">
        <ele>268</ele>
        <time>2020-09-22T12:33:30Z</time>
      </trkpt>
      <trkpt lat="46.52427" lon="4.87953">
        <ele>268</ele>
        <time>2020-09-22T12:33:32Z</time>
      </trkpt>
      <trkpt lat="46.52415" lon="4.87962">
        <ele>270</ele>
        <time>2020-09-22T12:33:35Z</time>
      </trkpt>
      <trkpt lat="46.52402" lon="4.87898">
        <ele>276</ele>
        <time>2020-09-22T12:33:46Z</time>
      </trkpt>
      <trkpt lat="46.52394" lon="4.8787">
        <ele>278</ele>
        <time>2020-09-22T12:33:51Z</time>
      </trkpt>
      <trkpt lat="46.52387" lon="4.87861">
        <ele>279</ele>
        <time>2020-09-22T12:33:53Z</time>
      </trkpt>
      <trkpt lat="46.52376" lon="4.87854">
        <ele>281</ele>
        <time>2020-09-22T12:33:56Z</time>
      </trkpt>
      <trkpt lat="46.5236" lon="4.87857">
        <ele>282</ele>
        <time>2020-09-22T12:33:59Z</time>
      </trkpt>
      <trkpt lat="46.52303" lon="4.87875">
        <ele>282</ele>
        <time>2020-09-22T12:34:13Z</time>
      </trkpt>
      <trkpt lat="46.52251" lon="4.87882">
        <ele>281</ele>
        <time>2020-09-22T12:34:25Z</time>
      </trkpt>
      <trkpt lat="46.52222" lon="4.87882">
        <ele>279</ele>
        <time>2020-09-22T12:34:32Z</time>
      </trkpt>
      <trkpt lat="46.52199" lon="4.87885">
        <ele>277</ele>
        <time>2020-09-22T12:34:37Z</time>
      </trkpt>
      <trkpt lat="46.52139" lon="4.87905">
        <ele>273</ele>
        <time>2020-09-22T12:34:52Z</time>
      </trkpt>
      <trkpt lat="46.52074" lon="4.87911">
        <ele>272</ele>
        <time>2020-09-22T12:35:07Z</time>
      </trkpt>
      <trkpt lat="46.52034" lon="4.87918">
        <ele>271</ele>
        <time>2020-09-22T12:35:16Z</time>
      </trkpt>
      <trkpt lat="46.51977" lon="4.87932">
        <ele>268</ele>
        <time>2020-09-22T12:35:30Z</time>
      </trkpt>
      <trkpt lat="46.51964" lon="4.87937">
        <ele>267</ele>
        <time>2020-09-22T12:35:33Z</time>
      </trkpt>
      <trkpt lat="46.51828" lon="4.88087">
        <ele>259</ele>
        <time>2020-09-22T12:36:13Z</time>
      </trkpt>
      <trkpt lat="46.5181" lon="4.8811">
        <ele>259</ele>
        <time>2020-09-22T12:36:18Z</time>
      </trkpt>
      <trkpt lat="46.51771" lon="4.88169">
        <ele>263</ele>
        <time>2020-09-22T12:36:32Z</time>
      </trkpt>
      <trkpt lat="46.51713" lon="4.88138">
        <ele>267</ele>
        <time>2020-09-22T12:36:46Z</time>
      </trkpt>
      <trkpt lat="46.51652" lon="4.88096">
        <ele>270</ele>
        <time>2020-09-22T12:37:02Z</time>
      </trkpt>
      <trkpt lat="46.5161" lon="4.88076">
        <ele>272</ele>
        <time>2020-09-22T12:37:12Z</time>
      </trkpt>
      <trkpt lat="46.51584" lon="4.88073">
        <ele>274</ele>
        <time>2020-09-22T12:37:18Z</time>
      </trkpt>
      <trkpt lat="46.5154" lon="4.88072">
        <ele>276</ele>
        <time>2020-09-22T12:37:28Z</time>
      </trkpt>
      <trkpt lat="46.51472" lon="4.88064">
        <ele>278</ele>
        <time>2020-09-22T12:37:44Z</time>
      </trkpt>
      <trkpt lat="46.51477" lon="4.88054">
        <ele>277</ele>
        <time>2020-09-22T12:37:46Z</time>
      </trkpt>
      <trkpt lat="46.51481" lon="4.88013">
        <ele>274</ele>
        <time>2020-09-22T12:37:53Z</time>
      </trkpt>
      <trkpt lat="46.51479" lon="4.88">
        <ele>273</ele>
        <time>2020-09-22T12:37:55Z</time>
      </trkpt>
      <trkpt lat="46.51462" lon="4.87962">
        <ele>273</ele>
        <time>2020-09-22T12:38:02Z</time>
      </trkpt>
      <trkpt lat="46.51459" lon="4.8795">
        <ele>273</ele>
        <time>2020-09-22T12:38:04Z</time>
      </trkpt>
      <trkpt lat="46.51459" lon="4.87934">
        <ele>272</ele>
        <time>2020-09-22T12:38:07Z</time>
      </trkpt>
      <trkpt lat="46.51475" lon="4.87857">
        <ele>271</ele>
        <time>2020-09-22T12:38:20Z</time>
      </trkpt>
      <trkpt lat="46.51485" lon="4.8782">
        <ele>272</ele>
        <time>2020-09-22T12:38:26Z</time>
      </trkpt>
      <trkpt lat="46.51493" lon="4.878">
        <ele>274</ele>
        <time>2020-09-22T12:38:30Z</time>
      </trkpt>
      <trkpt lat="46.51519" lon="4.87752">
        <ele>276</ele>
        <time>2020-09-22T12:38:40Z</time>
      </trkpt>
      <trkpt lat="46.5154" lon="4.87689">
        <ele>280</ele>
        <time>2020-09-22T12:38:51Z</time>
      </trkpt>
      <trkpt lat="46.51551" lon="4.87632">
        <ele>284</ele>
        <time>2020-09-22T12:39:01Z</time>
      </trkpt>
      <trkpt lat="46.51559" lon="4.87547">
        <ele>289</ele>
        <time>2020-09-22T12:39:14Z</time>
      </trkpt>
      <trkpt lat="46.51567" lon="4.87495">
        <ele>290</ele>
        <time>2020-09-22T12:39:23Z</time>
      </trkpt>
      <trkpt lat="46.5158" lon="4.8746">
        <ele>290</ele>
        <time>2020-09-22T12:39:29Z</time>
      </trkpt>
      <trkpt lat="46.516" lon="4.87423">
        <ele>291</ele>
        <time>2020-09-22T12:39:37Z</time>
      </trkpt>
      <trkpt lat="46.51602" lon="4.87413">
        <ele>292</ele>
        <time>2020-09-22T12:39:39Z</time>
      </trkpt>
      <trkpt lat="46.5159" lon="4.873">
        <ele>292</ele>
        <time>2020-09-22T12:39:57Z</time>
      </trkpt>
      <trkpt lat="46.5159" lon="4.87274">
        <ele>292</ele>
        <time>2020-09-22T12:40:01Z</time>
      </trkpt>
      <trkpt lat="46.51582" lon="4.87285">
        <ele>291</ele>
        <time>2020-09-22T12:40:04Z</time>
      </trkpt>
      <trkpt lat="46.51561" lon="4.87301">
        <ele>292</ele>
        <time>2020-09-22T12:40:09Z</time>
      </trkpt>
      <trkpt lat="46.51547" lon="4.87315">
        <ele>293</ele>
        <time>2020-09-22T12:40:13Z</time>
      </trkpt>
      <trkpt lat="46.51526" lon="4.87416">
        <ele>297</ele>
        <time>2020-09-22T12:40:30Z</time>
      </trkpt>
      <trkpt lat="46.51491" lon="4.87457">
        <ele>300</ele>
        <time>2020-09-22T12:40:41Z</time>
      </trkpt>
      <trkpt lat="46.51409" lon="4.87363">
        <ele>312</ele>
        <time>2020-09-22T12:41:05Z</time>
      </trkpt>
      <trkpt lat="46.51404" lon="4.87341">
        <ele>313</ele>
        <time>2020-09-22T12:41:09Z</time>
      </trkpt>
      <trkpt lat="46.51395" lon="4.87325">
        <ele>313</ele>
        <time>2020-09-22T12:41:12Z</time>
      </trkpt>
      <trkpt lat="46.51387" lon="4.87317">
        <ele>312</ele>
        <time>2020-09-22T12:41:14Z</time>
      </trkpt>
      <trkpt lat="46.51366" lon="4.87305">
        <ele>313</ele>
        <time>2020-09-22T12:41:20Z</time>
      </trkpt>
      <trkpt lat="46.51312" lon="4.87281">
        <ele>314</ele>
        <time>2020-09-22T12:41:33Z</time>
      </trkpt>
      <trkpt lat="46.51288" lon="4.87262">
        <ele>314</ele>
        <time>2020-09-22T12:41:39Z</time>
      </trkpt>
      <trkpt lat="46.51248" lon="4.87252">
        <ele>315</ele>
        <time>2020-09-22T12:41:49Z</time>
      </trkpt>
      <trkpt lat="46.5122" lon="4.87226">
        <ele>311</ele>
        <time>2020-09-22T12:41:57Z</time>
      </trkpt>
      <trkpt lat="46.51171" lon="4.87206">
        <ele>309</ele>
        <time>2020-09-22T12:42:08Z</time>
      </trkpt>
      <trkpt lat="46.51145" lon="4.87199">
        <ele>308</ele>
        <time>2020-09-22T12:42:15Z</time>
      </trkpt>
      <trkpt lat="46.51116" lon="4.87198">
        <ele>308</ele>
        <time>2020-09-22T12:42:21Z</time>
      </trkpt>
      <trkpt lat="46.51095" lon="4.87192">
        <ele>307</ele>
        <time>2020-09-22T12:42:26Z</time>
      </trkpt>
      <trkpt lat="46.51079" lon="4.87192">
        <ele>307</ele>
        <time>2020-09-22T12:42:30Z</time>
      </trkpt>
      <trkpt lat="46.51048" lon="4.87186">
        <ele>305</ele>
        <time>2020-09-22T12:42:37Z</time>
      </trkpt>
      <trkpt lat="46.51001" lon="4.87163">
        <ele>302</ele>
        <time>2020-09-22T12:42:49Z</time>
      </trkpt>
      <trkpt lat="46.50986" lon="4.87154">
        <ele>299</ele>
        <time>2020-09-22T12:42:53Z</time>
      </trkpt>
      <trkpt lat="46.50966" lon="4.87137">
        <ele>296</ele>
        <time>2020-09-22T12:42:58Z</time>
      </trkpt>
      <trkpt lat="46.50944" lon="4.87128">
        <ele>294</ele>
        <time>2020-09-22T12:43:03Z</time>
      </trkpt>
      <trkpt lat="46.50909" lon="4.87119">
        <ele>292</ele>
        <time>2020-09-22T12:43:12Z</time>
      </trkpt>
      <trkpt lat="46.50892" lon="4.87117">
        <ele>291</ele>
        <time>2020-09-22T12:43:16Z</time>
      </trkpt>
      <trkpt lat="46.50859" lon="4.87106">
        <ele>289</ele>
        <time>2020-09-22T12:43:24Z</time>
      </trkpt>
      <trkpt lat="46.50831" lon="4.8712">
        <ele>286</ele>
        <time>2020-09-22T12:43:31Z</time>
      </trkpt>
      <trkpt lat="46.50799" lon="4.87116">
        <ele>283</ele>
        <time>2020-09-22T12:43:38Z</time>
      </trkpt>
      <trkpt lat="46.50765" lon="4.87118">
        <ele>279</ele>
        <time>2020-09-22T12:43:46Z</time>
      </trkpt>
      <trkpt lat="46.50735" lon="4.87114">
        <ele>276</ele>
        <time>2020-09-22T12:43:53Z</time>
      </trkpt>
      <trkpt lat="46.50714" lon="4.87096">
        <ele>272</ele>
        <time>2020-09-22T12:43:59Z</time>
      </trkpt>
      <trkpt lat="46.50709" lon="4.87113">
        <ele>272</ele>
        <time>2020-09-22T12:44:02Z</time>
      </trkpt>
      <trkpt lat="46.50709" lon="4.87133">
        <ele>274</ele>
        <time>2020-09-22T12:44:05Z</time>
      </trkpt>
      <trkpt lat="46.50718" lon="4.87314">
        <ele>269</ele>
        <time>2020-09-22T12:44:34Z</time>
      </trkpt>
      <trkpt lat="46.50725" lon="4.87397">
        <ele>267</ele>
        <time>2020-09-22T12:44:48Z</time>
      </trkpt>
      <trkpt lat="46.50723" lon="4.87414">
        <ele>267</ele>
        <time>2020-09-22T12:44:50Z</time>
      </trkpt>
      <trkpt lat="46.50717" lon="4.87432">
        <ele>267</ele>
        <time>2020-09-22T12:44:54Z</time>
      </trkpt>
      <trkpt lat="46.50698" lon="4.87476">
        <ele>268</ele>
        <time>2020-09-22T12:45:02Z</time>
      </trkpt>
      <trkpt lat="46.50688" lon="4.87531">
        <ele>269</ele>
        <time>2020-09-22T12:45:11Z</time>
      </trkpt>
      <trkpt lat="46.50689" lon="4.87558">
        <ele>271</ele>
        <time>2020-09-22T12:45:15Z</time>
      </trkpt>
      <trkpt lat="46.5068" lon="4.87675">
        <ele>269</ele>
        <time>2020-09-22T12:45:34Z</time>
      </trkpt>
      <trkpt lat="46.50682" lon="4.87829">
        <ele>265</ele>
        <time>2020-09-22T12:45:59Z</time>
      </trkpt>
      <trkpt lat="46.50676" lon="4.87889">
        <ele>262</ele>
        <time>2020-09-22T12:46:09Z</time>
      </trkpt>
      <trkpt lat="46.50658" lon="4.88001">
        <ele>257</ele>
        <time>2020-09-22T12:46:27Z</time>
      </trkpt>
      <trkpt lat="46.50652" lon="4.88029">
        <ele>256</ele>
        <time>2020-09-22T12:46:32Z</time>
      </trkpt>
      <trkpt lat="46.50644" lon="4.88044">
        <ele>254</ele>
        <time>2020-09-22T12:46:35Z</time>
      </trkpt>
      <trkpt lat="46.50549" lon="4.88277">
        <ele>240</ele>
        <time>2020-09-22T12:47:19Z</time>
      </trkpt>
      <trkpt lat="46.50514" lon="4.88351">
        <ele>236</ele>
        <time>2020-09-22T12:47:33Z</time>
      </trkpt>
      <trkpt lat="46.50485" lon="4.88394">
        <ele>233</ele>
        <time>2020-09-22T12:47:43Z</time>
      </trkpt>
      <trkpt lat="46.50433" lon="4.88493">
        <ele>229</ele>
        <time>2020-09-22T12:48:03Z</time>
      </trkpt>
      <trkpt lat="46.50425" lon="4.88505">
        <ele>228</ele>
        <time>2020-09-22T12:48:05Z</time>
      </trkpt>
      <trkpt lat="46.50413" lon="4.88514">
        <ele>228</ele>
        <time>2020-09-22T12:48:09Z</time>
      </trkpt>
      <trkpt lat="46.5041" lon="4.88531">
        <ele>227</ele>
        <time>2020-09-22T12:48:11Z</time>
      </trkpt>
      <trkpt lat="46.50411" lon="4.88556">
        <ele>227</ele>
        <time>2020-09-22T12:48:15Z</time>
      </trkpt>
      <trkpt lat="46.50427" lon="4.88589">
        <ele>227</ele>
        <time>2020-09-22T12:48:22Z</time>
      </trkpt>
      <trkpt lat="46.50452" lon="4.88615">
        <ele>228</ele>
        <time>2020-09-22T12:48:29Z</time>
      </trkpt>
      <trkpt lat="46.50477" lon="4.88631">
        <ele>229</ele>
        <time>2020-09-22T12:48:35Z</time>
      </trkpt>
      <trkpt lat="46.50508" lon="4.88656">
        <ele>231</ele>
        <time>2020-09-22T12:48:44Z</time>
      </trkpt>
      <trkpt lat="46.50537" lon="4.8869">
        <ele>232</ele>
        <time>2020-09-22T12:48:52Z</time>
      </trkpt>
      <trkpt lat="46.50551" lon="4.88702">
        <ele>233</ele>
        <time>2020-09-22T12:48:56Z</time>
      </trkpt>
      <trkpt lat="46.50609" lon="4.88731">
        <ele>235</ele>
        <time>2020-09-22T12:49:11Z</time>
      </trkpt>
      <trkpt lat="46.50622" lon="4.88741">
        <ele>235</ele>
        <time>2020-09-22T12:49:14Z</time>
      </trkpt>
      <trkpt lat="46.50698" lon="4.88818">
        <ele>239</ele>
        <time>2020-09-22T12:49:36Z</time>
      </trkpt>
      <trkpt lat="46.50714" lon="4.88837">
        <ele>240</ele>
        <time>2020-09-22T12:49:40Z</time>
      </trkpt>
      <trkpt lat="46.50728" lon="4.88825">
        <ele>241</ele>
        <time>2020-09-22T12:49:44Z</time>
      </trkpt>
      <trkpt lat="46.50732" lon="4.88817">
        <ele>242</ele>
        <time>2020-09-22T12:49:46Z</time>
      </trkpt>
      <trkpt lat="46.50752" lon="4.88821">
        <ele>243</ele>
        <time>2020-09-22T12:49:51Z</time>
      </trkpt>
      <trkpt lat="46.50771" lon="4.88831">
        <ele>245</ele>
        <time>2020-09-22T12:49:55Z</time>
      </trkpt>
      <trkpt lat="46.50795" lon="4.88853">
        <ele>247</ele>
        <time>2020-09-22T12:50:02Z</time>
      </trkpt>
      <trkpt lat="46.50874" lon="4.88945">
        <ele>249</ele>
        <time>2020-09-22T12:50:26Z</time>
      </trkpt>
      <trkpt lat="46.50906" lon="4.88989">
        <ele>249</ele>
        <time>2020-09-22T12:50:36Z</time>
      </trkpt>
      <trkpt lat="46.50947" lon="4.89064">
        <ele>250</ele>
        <time>2020-09-22T12:50:51Z</time>
      </trkpt>
      <trkpt lat="46.50988" lon="4.89122">
        <ele>253</ele>
        <time>2020-09-22T12:51:05Z</time>
      </trkpt>
      <trkpt lat="46.51122" lon="4.8928">
        <ele>259</ele>
        <time>2020-09-22T12:51:45Z</time>
      </trkpt>
      <trkpt lat="46.5118" lon="4.89326">
        <ele>260</ele>
        <time>2020-09-22T12:52:00Z</time>
      </trkpt>
      <trkpt lat="46.51235" lon="4.89363">
        <ele>261</ele>
        <time>2020-09-22T12:52:14Z</time>
      </trkpt>
      <trkpt lat="46.51322" lon="4.894">
        <ele>259</ele>
        <time>2020-09-22T12:52:36Z</time>
      </trkpt>
      <trkpt lat="46.51347" lon="4.89415">
        <ele>258</ele>
        <time>2020-09-22T12:52:42Z</time>
      </trkpt>
      <trkpt lat="46.51363" lon="4.8943">
        <ele>257</ele>
        <time>2020-09-22T12:52:46Z</time>
      </trkpt>
      <trkpt lat="46.51384" lon="4.89464">
        <ele>254</ele>
        <time>2020-09-22T12:52:54Z</time>
      </trkpt>
      <trkpt lat="46.51422" lon="4.895">
        <ele>252</ele>
        <time>2020-09-22T12:53:04Z</time>
      </trkpt>
      <trkpt lat="46.51449" lon="4.89507">
        <ele>253</ele>
        <time>2020-09-22T12:53:11Z</time>
      </trkpt>
      <trkpt lat="46.51506" lon="4.89539">
        <ele>252</ele>
        <time>2020-09-22T12:53:25Z</time>
      </trkpt>
      <trkpt lat="46.51514" lon="4.89541">
        <ele>253</ele>
        <time>2020-09-22T12:53:27Z</time>
      </trkpt>
      <trkpt lat="46.51529" lon="4.89574">
        <ele>252</ele>
        <time>2020-09-22T12:53:33Z</time>
      </trkpt>
      <trkpt lat="46.51542" lon="4.89589">
        <ele>253</ele>
        <time>2020-09-22T12:53:37Z</time>
      </trkpt>
      <trkpt lat="46.51566" lon="4.89658">
        <ele>251</ele>
        <time>2020-09-22T12:53:50Z</time>
      </trkpt>
      <trkpt lat="46.51581" lon="4.89686">
        <ele>250</ele>
        <time>2020-09-22T12:53:55Z</time>
      </trkpt>
      <trkpt lat="46.51611" lon="4.89733">
        <ele>249</ele>
        <time>2020-09-22T12:54:06Z</time>
      </trkpt>
      <trkpt lat="46.517" lon="4.89857">
        <ele>251</ele>
        <time>2020-09-22T12:54:34Z</time>
      </trkpt>
      <trkpt lat="46.51724" lon="4.899">
        <ele>252</ele>
        <time>2020-09-22T12:54:43Z</time>
      </trkpt>
      <trkpt lat="46.51724" lon="4.89909">
        <ele>252</ele>
        <time>2020-09-22T12:54:45Z</time>
      </trkpt>
      <trkpt lat="46.51724" lon="4.89907">
        <ele>252</ele>
        <time>2020-09-22T12:54:45Z</time>
      </trkpt>
      <trkpt lat="46.5174" lon="4.89936">
        <ele>252</ele>
        <time>2020-09-22T12:54:51Z</time>
      </trkpt>
      <trkpt lat="46.51837" lon="4.89996">
        <ele>262</ele>
        <time>2020-09-22T12:55:16Z</time>
      </trkpt>
      <trkpt lat="46.51848" lon="4.90001">
        <ele>263</ele>
        <time>2020-09-22T12:55:18Z</time>
      </trkpt>
      <trkpt lat="46.51868" lon="4.90001">
        <ele>266</ele>
        <time>2020-09-22T12:55:23Z</time>
      </trkpt>
      <trkpt lat="46.51885" lon="4.90005">
        <ele>268</ele>
        <time>2020-09-22T12:55:27Z</time>
      </trkpt>
      <trkpt lat="46.51988" lon="4.90078">
        <ele>274</ele>
        <time>2020-09-22T12:55:54Z</time>
      </trkpt>
      <trkpt lat="46.5208" lon="4.90128">
        <ele>280</ele>
        <time>2020-09-22T12:56:17Z</time>
      </trkpt>
      <trkpt lat="46.52182" lon="4.90208">
        <ele>280</ele>
        <time>2020-09-22T12:56:44Z</time>
      </trkpt>
      <trkpt lat="46.52208" lon="4.90224">
        <ele>281</ele>
        <time>2020-09-22T12:56:50Z</time>
      </trkpt>
      <trkpt lat="46.52317" lon="4.90253">
        <ele>289</ele>
        <time>2020-09-22T12:57:16Z</time>
      </trkpt>
      <trkpt lat="46.52373" lon="4.9029">
        <ele>292</ele>
        <time>2020-09-22T12:57:31Z</time>
      </trkpt>
      <trkpt lat="46.52387" lon="4.90293">
        <ele>294</ele>
        <time>2020-09-22T12:57:34Z</time>
      </trkpt>
      <trkpt lat="46.52455" lon="4.90297">
        <ele>298</ele>
        <time>2020-09-22T12:57:50Z</time>
      </trkpt>
      <trkpt lat="46.52504" lon="4.90353">
        <ele>295</ele>
        <time>2020-09-22T12:58:04Z</time>
      </trkpt>
      <trkpt lat="46.52624" lon="4.90453">
        <ele>289</ele>
        <time>2020-09-22T12:58:37Z</time>
      </trkpt>
      <trkpt lat="46.52679" lon="4.90475">
        <ele>289</ele>
        <time>2020-09-22T12:58:50Z</time>
      </trkpt>
      <trkpt lat="46.52696" lon="4.90495">
        <ele>288</ele>
        <time>2020-09-22T12:58:55Z</time>
      </trkpt>
      <trkpt lat="46.52703" lon="4.90528">
        <ele>286</ele>
        <time>2020-09-22T12:59:01Z</time>
      </trkpt>
      <trkpt lat="46.52702" lon="4.90556">
        <ele>284</ele>
        <time>2020-09-22T12:59:05Z</time>
      </trkpt>
      <trkpt lat="46.52644" lon="4.90651">
        <ele>271</ele>
        <time>2020-09-22T12:59:26Z</time>
      </trkpt>
      <trkpt lat="46.52608" lon="4.90737">
        <ele>256</ele>
        <time>2020-09-22T12:59:42Z</time>
      </trkpt>
      <trkpt lat="46.52608" lon="4.90743">
        <ele>255</ele>
        <time>2020-09-22T12:59:43Z</time>
      </trkpt>
      <trkpt lat="46.52611" lon="4.90751">
        <ele>255</ele>
        <time>2020-09-22T12:59:44Z</time>
      </trkpt>
      <trkpt lat="46.52628" lon="4.9076">
        <ele>256</ele>
        <time>2020-09-22T12:59:48Z</time>
      </trkpt>
      <trkpt lat="46.52641" lon="4.90771">
        <ele>257</ele>
        <time>2020-09-22T12:59:52Z</time>
      </trkpt>
      <trkpt lat="46.52687" lon="4.90823">
        <ele>256</ele>
        <time>2020-09-22T13:00:06Z</time>
      </trkpt>
      <trkpt lat="46.52709" lon="4.90863">
        <ele>254</ele>
        <time>2020-09-22T13:00:14Z</time>
      </trkpt>
      <trkpt lat="46.52703" lon="4.90951">
        <ele>244</ele>
        <time>2020-09-22T13:00:28Z</time>
      </trkpt>
      <trkpt lat="46.52713" lon="4.90998">
        <ele>241</ele>
        <time>2020-09-22T13:00:36Z</time>
      </trkpt>
      <trkpt lat="46.52683" lon="4.91104">
        <ele>237</ele>
        <time>2020-09-22T13:00:54Z</time>
      </trkpt>
      <trkpt lat="46.52775" lon="4.91145">
        <ele>236</ele>
        <time>2020-09-22T13:01:17Z</time>
      </trkpt>
      <trkpt lat="46.52863" lon="4.91173">
        <ele>236</ele>
        <time>2020-09-22T13:01:38Z</time>
      </trkpt>
      <trkpt lat="46.52953" lon="4.91265">
        <ele>236</ele>
        <time>2020-09-22T13:02:03Z</time>
      </trkpt>
      <trkpt lat="46.52986" lon="4.91293">
        <ele>235</ele>
        <time>2020-09-22T13:02:12Z</time>
      </trkpt>
      <trkpt lat="46.53052" lon="4.91335">
        <ele>230</ele>
        <time>2020-09-22T13:02:29Z</time>
      </trkpt>
      <trkpt lat="46.53162" lon="4.91365">
        <ele>225</ele>
        <time>2020-09-22T13:02:55Z</time>
      </trkpt>
      <trkpt lat="46.5321" lon="4.91388">
        <ele>224</ele>
        <time>2020-09-22T13:03:07Z</time>
      </trkpt>
      <trkpt lat="46.53232" lon="4.91413">
        <ele>223</ele>
        <time>2020-09-22T13:03:14Z</time>
      </trkpt>
      <trkpt lat="46.53268" lon="4.91492">
        <ele>222</ele>
        <time>2020-09-22T13:03:29Z</time>
      </trkpt>
      <trkpt lat="46.5329" lon="4.91512">
        <ele>222</ele>
        <time>2020-09-22T13:03:35Z</time>
      </trkpt>
      <trkpt lat="46.5332" lon="4.91533">
        <ele>221</ele>
        <time>2020-09-22T13:03:43Z</time>
      </trkpt>
      <trkpt lat="46.53348" lon="4.91549">
        <ele>221</ele>
        <time>2020-09-22T13:03:50Z</time>
      </trkpt>
      <trkpt lat="46.53358" lon="4.91562">
        <ele>221</ele>
        <time>2020-09-22T13:03:53Z</time>
      </trkpt>
      <trkpt lat="46.5337" lon="4.91591">
        <ele>221</ele>
        <time>2020-09-22T13:03:58Z</time>
      </trkpt>
      <trkpt lat="46.53385" lon="4.91599">
        <ele>221</ele>
        <time>2020-09-22T13:04:02Z</time>
      </trkpt>
      <trkpt lat="46.53415" lon="4.91606">
        <ele>221</ele>
        <time>2020-09-22T13:04:09Z</time>
      </trkpt>
      <trkpt lat="46.53527" lon="4.91606">
        <ele>222</ele>
        <time>2020-09-22T13:04:35Z</time>
      </trkpt>
      <trkpt lat="46.53544" lon="4.91609">
        <ele>222</ele>
        <time>2020-09-22T13:04:39Z</time>
      </trkpt>
      <trkpt lat="46.53608" lon="4.91629">
        <ele>222</ele>
        <time>2020-09-22T13:04:55Z</time>
      </trkpt>
      <trkpt lat="46.53651" lon="4.91637">
        <ele>223</ele>
        <time>2020-09-22T13:05:05Z</time>
      </trkpt>
      <trkpt lat="46.53676" lon="4.91639">
        <ele>223</ele>
        <time>2020-09-22T13:05:11Z</time>
      </trkpt>
      <trkpt lat="46.53759" lon="4.91631">
        <ele>222</ele>
        <time>2020-09-22T13:05:30Z</time>
      </trkpt>
      <trkpt lat="46.53805" lon="4.91641">
        <ele>221</ele>
        <time>2020-09-22T13:05:41Z</time>
      </trkpt>
      <trkpt lat="46.53827" lon="4.91641">
        <ele>221</ele>
        <time>2020-09-22T13:05:46Z</time>
      </trkpt>
      <trkpt lat="46.53859" lon="4.91638">
        <ele>221</ele>
        <time>2020-09-22T13:05:54Z</time>
      </trkpt>
      <trkpt lat="46.53932" lon="4.91626">
        <ele>222</ele>
        <time>2020-09-22T13:06:11Z</time>
      </trkpt>
      <trkpt lat="46.53959" lon="4.91623">
        <ele>222</ele>
        <time>2020-09-22T13:06:17Z</time>
      </trkpt>
      <trkpt lat="46.53972" lon="4.91624">
        <ele>223</ele>
        <time>2020-09-22T13:06:20Z</time>
      </trkpt>
      <trkpt lat="46.54021" lon="4.91636">
        <ele>223</ele>
        <time>2020-09-22T13:06:32Z</time>
      </trkpt>
      <trkpt lat="46.54109" lon="4.91669">
        <ele>224</ele>
        <time>2020-09-22T13:06:53Z</time>
      </trkpt>
      <trkpt lat="46.5417" lon="4.91682">
        <ele>223</ele>
        <time>2020-09-22T13:07:07Z</time>
      </trkpt>
      <trkpt lat="46.54212" lon="4.91674">
        <ele>223</ele>
        <time>2020-09-22T13:07:17Z</time>
      </trkpt>
      <trkpt lat="46.54277" lon="4.91671">
        <ele>223</ele>
        <time>2020-09-22T13:07:32Z</time>
      </trkpt>
      <trkpt lat="46.54326" lon="4.91657">
        <ele>222</ele>
        <time>2020-09-22T13:07:44Z</time>
      </trkpt>
      <trkpt lat="46.54387" lon="4.91651">
        <ele>221</ele>
        <time>2020-09-22T13:07:58Z</time>
      </trkpt>
      <trkpt lat="46.54396" lon="4.91647">
        <ele>220</ele>
        <time>2020-09-22T13:08:00Z</time>
      </trkpt>
      <trkpt lat="46.54405" lon="4.91639">
        <ele>220</ele>
        <time>2020-09-22T13:08:03Z</time>
      </trkpt>
      <trkpt lat="46.54412" lon="4.91624">
        <ele>220</ele>
        <time>2020-09-22T13:08:06Z</time>
      </trkpt>
      <trkpt lat="46.54413" lon="4.91553">
        <ele>221</ele>
        <time>2020-09-22T13:08:17Z</time>
      </trkpt>
      <trkpt lat="46.54425" lon="4.9147">
        <ele>220</ele>
        <time>2020-09-22T13:08:31Z</time>
      </trkpt>
      <trkpt lat="46.5444" lon="4.91411">
        <ele>220</ele>
        <time>2020-09-22T13:08:41Z</time>
      </trkpt>
      <trkpt lat="46.54456" lon="4.91371">
        <ele>221</ele>
        <time>2020-09-22T13:08:48Z</time>
      </trkpt>
      <trkpt lat="46.54472" lon="4.91316">
        <ele>220</ele>
        <time>2020-09-22T13:08:58Z</time>
      </trkpt>
      <trkpt lat="46.5448" lon="4.91303">
        <ele>219</ele>
        <time>2020-09-22T13:09:01Z</time>
      </trkpt>
      <trkpt lat="46.5449" lon="4.91294">
        <ele>218</ele>
        <time>2020-09-22T13:09:04Z</time>
      </trkpt>
      <trkpt lat="46.54502" lon="4.91292">
        <ele>217</ele>
        <time>2020-09-22T13:09:06Z</time>
      </trkpt>
      <trkpt lat="46.54538" lon="4.91293">
        <ele>215</ele>
        <time>2020-09-22T13:09:15Z</time>
      </trkpt>
      <trkpt lat="46.54586" lon="4.91298">
        <ele>211</ele>
        <time>2020-09-22T13:09:26Z</time>
      </trkpt>
      <trkpt lat="46.54593" lon="4.91293">
        <ele>211</ele>
        <time>2020-09-22T13:09:28Z</time>
      </trkpt>
      <trkpt lat="46.54602" lon="4.91275">
        <ele>211</ele>
        <time>2020-09-22T13:09:31Z</time>
      </trkpt>
      <trkpt lat="46.54602" lon="4.91186">
        <ele>210</ele>
        <time>2020-09-22T13:09:46Z</time>
      </trkpt>
      <trkpt lat="46.54623" lon="4.91136">
        <ele>208</ele>
        <time>2020-09-22T13:09:55Z</time>
      </trkpt>
      <trkpt lat="46.54643" lon="4.911">
        <ele>208</ele>
        <time>2020-09-22T13:10:03Z</time>
      </trkpt>
      <trkpt lat="46.54648" lon="4.91087">
        <ele>207</ele>
        <time>2020-09-22T13:10:05Z</time>
      </trkpt>
      <trkpt lat="46.54649" lon="4.91072">
        <ele>207</ele>
        <time>2020-09-22T13:10:07Z</time>
      </trkpt>
      <trkpt lat="46.54663" lon="4.91078">
        <ele>207</ele>
        <time>2020-09-22T13:10:11Z</time>
      </trkpt>
      <trkpt lat="46.54685" lon="4.91096">
        <ele>206</ele>
        <time>2020-09-22T13:10:17Z</time>
      </trkpt>
      <trkpt lat="46.547" lon="4.91106">
        <ele>205</ele>
        <time>2020-09-22T13:10:21Z</time>
      </trkpt>
      <trkpt lat="46.54709" lon="4.91109">
        <ele>205</ele>
        <time>2020-09-22T13:10:23Z</time>
      </trkpt>
      <trkpt lat="46.5472" lon="4.9111">
        <ele>204</ele>
        <time>2020-09-22T13:10:25Z</time>
      </trkpt>
      <trkpt lat="46.54793" lon="4.91098">
        <ele>199</ele>
        <time>2020-09-22T13:10:42Z</time>
      </trkpt>
      <trkpt lat="46.54811" lon="4.91097">
        <ele>197</ele>
        <time>2020-09-22T13:10:47Z</time>
      </trkpt>
      <trkpt lat="46.54825" lon="4.911">
        <ele>196</ele>
        <time>2020-09-22T13:10:50Z</time>
      </trkpt>
      <trkpt lat="46.54835" lon="4.91105">
        <ele>196</ele>
        <time>2020-09-22T13:10:52Z</time>
      </trkpt>
      <trkpt lat="46.54864" lon="4.91128">
        <ele>196</ele>
        <time>2020-09-22T13:11:00Z</time>
      </trkpt>
      <trkpt lat="46.54929" lon="4.91224">
        <ele>198</ele>
        <time>2020-09-22T13:11:22Z</time>
      </trkpt>
      <trkpt lat="46.54946" lon="4.91255">
        <ele>197</ele>
        <time>2020-09-22T13:11:28Z</time>
      </trkpt>
      <trkpt lat="46.54977" lon="4.9134">
        <ele>198</ele>
        <time>2020-09-22T13:11:44Z</time>
      </trkpt>
      <trkpt lat="46.5499" lon="4.91389">
        <ele>198</ele>
        <time>2020-09-22T13:11:52Z</time>
      </trkpt>
      <trkpt lat="46.55008" lon="4.91427">
        <ele>197</ele>
        <time>2020-09-22T13:11:59Z</time>
      </trkpt>
      <trkpt lat="46.55041" lon="4.91466">
        <ele>194</ele>
        <time>2020-09-22T13:12:09Z</time>
      </trkpt>
      <trkpt lat="46.55103" lon="4.9153">
        <ele>192</ele>
        <time>2020-09-22T13:12:27Z</time>
      </trkpt>
      <trkpt lat="46.55139" lon="4.91557">
        <ele>190</ele>
        <time>2020-09-22T13:12:37Z</time>
      </trkpt>
      <trkpt lat="46.55154" lon="4.91544">
        <ele>188</ele>
        <time>2020-09-22T13:12:41Z</time>
      </trkpt>
      <trkpt lat="46.55172" lon="4.91541">
        <ele>187</ele>
        <time>2020-09-22T13:12:45Z</time>
      </trkpt>
      <trkpt lat="46.5527" lon="4.91618">
        <ele>181</ele>
        <time>2020-09-22T13:13:11Z</time>
      </trkpt>
      <trkpt lat="46.55295" lon="4.91629">
        <ele>179</ele>
        <time>2020-09-22T13:13:17Z</time>
      </trkpt>
      <trkpt lat="46.55318" lon="4.91634">
        <ele>178</ele>
        <time>2020-09-22T13:13:22Z</time>
      </trkpt>
      <trkpt lat="46.55355" lon="4.91627">
        <ele>176</ele>
        <time>2020-09-22T13:13:31Z</time>
      </trkpt>
      <trkpt lat="46.55377" lon="4.91619">
        <ele>176</ele>
        <time>2020-09-22T13:13:36Z</time>
      </trkpt>
      <trkpt lat="46.55384" lon="4.91619">
        <ele>176</ele>
        <time>2020-09-22T13:13:38Z</time>
      </trkpt>
      <trkpt lat="46.55391" lon="4.91625">
        <ele>176</ele>
        <time>2020-09-22T13:13:40Z</time>
      </trkpt>
      <trkpt lat="46.55411" lon="4.91613">
        <ele>175</ele>
        <time>2020-09-22T13:13:45Z</time>
      </trkpt>
      <trkpt lat="46.5543" lon="4.91605">
        <ele>175</ele>
        <time>2020-09-22T13:13:50Z</time>
      </trkpt>
      <trkpt lat="46.55464" lon="4.91593">
        <ele>174</ele>
        <time>2020-09-22T13:13:58Z</time>
      </trkpt>
      <trkpt lat="46.55489" lon="4.91587">
        <ele>174</ele>
        <time>2020-09-22T13:14:04Z</time>
      </trkpt>
      <trkpt lat="46.55523" lon="4.91585">
        <ele>175</ele>
        <time>2020-09-22T13:14:12Z</time>
      </trkpt>
      <trkpt lat="46.55537" lon="4.91591">
        <ele>175</ele>
        <time>2020-09-22T13:14:15Z</time>
      </trkpt>
      <trkpt lat="46.5559" lon="4.91761">
        <ele>174</ele>
        <time>2020-09-22T13:14:45Z</time>
      </trkpt>
      <trkpt lat="46.55673" lon="4.91741">
        <ele>174</ele>
        <time>2020-09-22T13:15:05Z</time>
      </trkpt>
      <trkpt lat="46.55731" lon="4.91718">
        <ele>171</ele>
        <time>2020-09-22T13:15:19Z</time>
      </trkpt>
      <trkpt lat="46.55925" lon="4.91602">
        <ele>175</ele>
        <time>2020-09-22T13:16:08Z</time>
      </trkpt>
      <trkpt lat="46.56017" lon="4.91537">
        <ele>174</ele>
        <time>2020-09-22T13:16:32Z</time>
      </trkpt>
      <trkpt lat="46.56164" lon="4.91384">
        <ele>178</ele>
        <time>2020-09-22T13:17:14Z</time>
      </trkpt>
      <trkpt lat="46.56299" lon="4.91273">
        <ele>179</ele>
        <time>2020-09-22T13:17:50Z</time>
      </trkpt>
      <trkpt lat="46.56332" lon="4.91249">
        <ele>179</ele>
        <time>2020-09-22T13:17:59Z</time>
      </trkpt>
      <trkpt lat="46.56389" lon="4.91216">
        <ele>178</ele>
        <time>2020-09-22T13:18:13Z</time>
      </trkpt>
      <trkpt lat="46.5644" lon="4.91191">
        <ele>178</ele>
        <time>2020-09-22T13:18:26Z</time>
      </trkpt>
      <trkpt lat="46.56469" lon="4.91181">
        <ele>178</ele>
        <time>2020-09-22T13:18:32Z</time>
      </trkpt>
      <trkpt lat="46.56544" lon="4.91139">
        <ele>177</ele>
        <time>2020-09-22T13:18:51Z</time>
      </trkpt>
      <trkpt lat="46.56576" lon="4.91125">
        <ele>176</ele>
        <time>2020-09-22T13:18:59Z</time>
      </trkpt>
      <trkpt lat="46.56625" lon="4.91111">
        <ele>176</ele>
        <time>2020-09-22T13:19:11Z</time>
      </trkpt>
      <trkpt lat="46.5664" lon="4.9111">
        <ele>175</ele>
        <time>2020-09-22T13:19:14Z</time>
      </trkpt>
      <trkpt lat="46.56655" lon="4.91105">
        <ele>175</ele>
        <time>2020-09-22T13:19:18Z</time>
      </trkpt>
      <trkpt lat="46.56687" lon="4.91087">
        <ele>175</ele>
        <time>2020-09-22T13:19:26Z</time>
      </trkpt>
      <trkpt lat="46.56693" lon="4.91104">
        <ele>174</ele>
        <time>2020-09-22T13:19:29Z</time>
      </trkpt>
      <trkpt lat="46.56698" lon="4.91107">
        <ele>173</ele>
        <time>2020-09-22T13:19:30Z</time>
      </trkpt>
      <trkpt lat="46.56791" lon="4.91122">
        <ele>173</ele>
        <time>2020-09-22T13:19:52Z</time>
      </trkpt>
      <trkpt lat="46.57057" lon="4.91205">
        <ele>173</ele>
        <time>2020-09-22T13:20:56Z</time>
      </trkpt>
    </trkseg>
  </trk>
</gpx>